<?xml version="1.0" encoding="UTF-8" standalone="no" ?>
<gpx xmlns="http://www.topografix.com/GPX/1/1" xmlns:xsi="http://www.w3.org/2001/XMLSchema-instance" xsi:schemaLocation="http://www.topografix.com/GPX/1/1 http://www.topografix.com/GPX/1/1/gpx.xsd" version="1.1" creator="VisuGPX - https://www.visugpx.com">
  <metadata>
    <name>les crètes depuis st ju</name>
  </metadata>
  <trk>
    <name><![CDATA[les crètes depuis st ju_1]]></name>
    <trkseg>
      <trkpt lat="45.32138" lon="4.61492">
        <ele>591</ele>
      </trkpt>
      <trkpt lat="45.32107" lon="4.61512">
        <ele>593.2</ele>
      </trkpt>
      <trkpt lat="45.32099" lon="4.61537">
        <ele>590.4</ele>
      </trkpt>
      <trkpt lat="45.32074" lon="4.61576">
        <ele>588.8</ele>
      </trkpt>
      <trkpt lat="45.32038" lon="4.61615">
        <ele>585.2</ele>
      </trkpt>
      <trkpt lat="45.31985" lon="4.61669">
        <ele>581.2</ele>
      </trkpt>
      <trkpt lat="45.31952" lon="4.61713">
        <ele>578.6</ele>
      </trkpt>
      <trkpt lat="45.31983" lon="4.61741">
        <ele>572.9</ele>
      </trkpt>
      <trkpt lat="45.32016" lon="4.61788">
        <ele>572.8</ele>
      </trkpt>
      <trkpt lat="45.32065" lon="4.61793">
        <ele>576.4</ele>
      </trkpt>
      <trkpt lat="45.32113" lon="4.61815">
        <ele>584.5</ele>
      </trkpt>
      <trkpt lat="45.321" lon="4.61906">
        <ele>585.3547069823</ele>
        <time>2022-03-08T17:45:06.461Z</time>
      </trkpt>
      <trkpt lat="45.32138" lon="4.61934">
        <ele>586.35360837434</ele>
        <time>2022-03-08T17:45:06.540Z</time>
      </trkpt>
      <trkpt lat="45.32142" lon="4.61941">
        <ele>587.20633483975</ele>
        <time>2022-03-08T17:45:06.620Z</time>
      </trkpt>
      <trkpt lat="45.32144" lon="4.61949">
        <ele>588.11146026271</ele>
        <time>2022-03-08T17:45:06.701Z</time>
      </trkpt>
      <trkpt lat="45.32149" lon="4.61967">
        <ele>589.15403920107</ele>
        <time>2022-03-08T17:45:06.785Z</time>
      </trkpt>
      <trkpt lat="45.32161" lon="4.62005">
        <ele>590.39307973034</ele>
        <time>2022-03-08T17:45:06.875Z</time>
      </trkpt>
      <trkpt lat="45.32222" lon="4.6212">
        <ele>591.89462788525</ele>
        <time>2022-03-08T17:45:06.985Z</time>
      </trkpt>
      <trkpt lat="45.32222" lon="4.6212">
        <ele>596.02950090736</ele>
        <time>2022-03-08T17:45:07.095Z</time>
      </trkpt>
      <trkpt lat="45.32223" lon="4.62123">
        <ele>597.50127685921</ele>
        <time>2022-03-08T17:45:07.205Z</time>
      </trkpt>
      <trkpt lat="45.32247" lon="4.62101">
        <ele>599.2371914734</ele>
        <time>2022-03-08T17:45:07.321Z</time>
      </trkpt>
      <trkpt lat="45.3226" lon="4.62089">
        <ele>601.04640033268</ele>
        <time>2022-03-08T17:45:07.440Z</time>
      </trkpt>
      <trkpt lat="45.3226" lon="4.62089">
        <ele>602.84223416869</ele>
        <time>2022-03-08T17:45:07.559Z</time>
      </trkpt>
      <trkpt lat="45.32291" lon="4.62059">
        <ele>605.1597432671</ele>
        <time>2022-03-08T17:45:07.686Z</time>
      </trkpt>
      <trkpt lat="45.323" lon="4.6205">
        <ele>607.38377332184</ele>
        <time>2022-03-08T17:45:07.815Z</time>
      </trkpt>
      <trkpt lat="45.32313" lon="4.62037">
        <ele>609.69341072135</ele>
        <time>2022-03-08T17:45:07.947Z</time>
      </trkpt>
      <trkpt lat="45.32347" lon="4.62018">
        <ele>612.36697945109</ele>
        <time>2022-03-08T17:45:08.087Z</time>
      </trkpt>
      <trkpt lat="45.32365" lon="4.62014">
        <ele>614.87801231136</ele>
        <time>2022-03-08T17:45:08.230Z</time>
      </trkpt>
      <trkpt lat="45.32422" lon="4.62006">
        <ele>617.64702891244</ele>
        <time>2022-03-08T17:45:08.385Z</time>
      </trkpt>
      <trkpt lat="45.32438" lon="4.61997">
        <ele>620.23379668076</ele>
        <time>2022-03-08T17:45:08.543Z</time>
      </trkpt>
      <trkpt lat="45.32454" lon="4.61987">
        <ele>622.79867867343</ele>
        <time>2022-03-08T17:45:08.705Z</time>
      </trkpt>
      <trkpt lat="45.32521" lon="4.61938">
        <ele>626.02503465402</ele>
        <time>2022-03-08T17:45:08.882Z</time>
      </trkpt>
      <trkpt lat="45.32573" lon="4.6188">
        <ele>629.23624581129</ele>
        <time>2022-03-08T17:45:09.072Z</time>
      </trkpt>
      <trkpt lat="45.32582" lon="4.61873">
        <ele>632.07317361807</ele>
        <time>2022-03-08T17:45:09.264Z</time>
      </trkpt>
      <trkpt lat="45.32588" lon="4.61869">
        <ele>634.79858611166</ele>
        <time>2022-03-08T17:45:09.457Z</time>
      </trkpt>
      <trkpt lat="45.32588" lon="4.61869">
        <ele>637.38223910537</ele>
        <time>2022-03-08T17:45:09.650Z</time>
      </trkpt>
      <trkpt lat="45.32588" lon="4.61869">
        <ele>634.79858611166</ele>
        <time>2022-03-08T17:45:09.843Z</time>
      </trkpt>
      <trkpt lat="45.32613" lon="4.6187">
        <ele>644.97201329484</ele>
        <time>2022-03-08T17:45:10.041Z</time>
      </trkpt>
      <trkpt lat="45.32722" lon="4.61876">
        <ele>648.07174017731</ele>
        <time>2022-03-08T17:45:10.261Z</time>
      </trkpt>
      <trkpt lat="45.3274" lon="4.61881">
        <ele>650.63925902856</ele>
        <time>2022-03-08T17:45:10.485Z</time>
      </trkpt>
      <trkpt lat="45.32764" lon="4.61901">
        <ele>653.19693589353</ele>
        <time>2022-03-08T17:45:10.714Z</time>
      </trkpt>
      <trkpt lat="45.32798" lon="4.61933">
        <ele>655.73000286525</ele>
        <time>2022-03-08T17:45:10.952Z</time>
      </trkpt>
      <trkpt lat="45.32798" lon="4.61933">
        <ele>658.12719629033</ele>
        <time>2022-03-08T17:45:11.190Z</time>
      </trkpt>
      <trkpt lat="45.32831" lon="4.61964">
        <ele>660.30029873092</ele>
        <time>2022-03-08T17:45:11.436Z</time>
      </trkpt>
      <trkpt lat="45.32865" lon="4.61958">
        <ele>663.52112270569</ele>
        <time>2022-03-08T17:45:11.688Z</time>
      </trkpt>
      <trkpt lat="45.32873" lon="4.61961">
        <ele>666.19615494903</ele>
        <time>2022-03-08T17:45:11.942Z</time>
      </trkpt>
      <trkpt lat="45.32882" lon="4.61987">
        <ele>668.64542034136</ele>
        <time>2022-03-08T17:45:12.200Z</time>
      </trkpt>
      <trkpt lat="45.32889" lon="4.62043">
        <ele>671.15233020796</ele>
        <time>2022-03-08T17:45:12.466Z</time>
      </trkpt>
      <trkpt lat="45.32903" lon="4.62074">
        <ele>673.84978844802</ele>
        <time>2022-03-08T17:45:12.737Z</time>
      </trkpt>
      <trkpt lat="45.32929" lon="4.62108">
        <ele>676.63859104571</ele>
        <time>2022-03-08T17:45:13.015Z</time>
      </trkpt>
      <trkpt lat="45.32953" lon="4.62126">
        <ele>679.34830234652</ele>
        <time>2022-03-08T17:45:13.299Z</time>
      </trkpt>
      <trkpt lat="45.32979" lon="4.62139">
        <ele>682.09324906595</ele>
        <time>2022-03-08T17:45:13.588Z</time>
      </trkpt>
      <trkpt lat="45.32993" lon="4.62141">
        <ele>684.77081083914</ele>
        <time>2022-03-08T17:45:13.880Z</time>
      </trkpt>
      <trkpt lat="45.33055" lon="4.62132">
        <ele>687.85987715167</ele>
        <time>2022-03-08T17:45:14.184Z</time>
      </trkpt>
      <trkpt lat="45.33082" lon="4.62137">
        <ele>690.47343117861</ele>
        <time>2022-03-08T17:45:14.494Z</time>
      </trkpt>
      <trkpt lat="45.33115" lon="4.62144">
        <ele>693.04422593802</ele>
        <time>2022-03-08T17:45:14.811Z</time>
      </trkpt>
      <trkpt lat="45.33265" lon="4.62152">
        <ele>695.37706248299</ele>
        <time>2022-03-08T17:45:15.158Z</time>
      </trkpt>
      <trkpt lat="45.33332" lon="4.62124">
        <ele>698.37671174647</ele>
        <time>2022-03-08T17:45:15.519Z</time>
      </trkpt>
      <trkpt lat="45.33389" lon="4.62169">
        <ele>700.93511108474</ele>
        <time>2022-03-08T17:45:15.893Z</time>
      </trkpt>
      <trkpt lat="45.33416" lon="4.6218">
        <ele>703.85755664256</ele>
        <time>2022-03-08T17:45:16.272Z</time>
      </trkpt>
      <trkpt lat="45.33431" lon="4.62182">
        <ele>706.69132221482</ele>
        <time>2022-03-08T17:45:16.654Z</time>
      </trkpt>
      <trkpt lat="45.33438" lon="4.62184">
        <ele>709.51452713393</ele>
        <time>2022-03-08T17:45:17.038Z</time>
      </trkpt>
      <trkpt lat="45.33438" lon="4.62184">
        <ele>712.33400528859</ele>
        <time>2022-03-08T17:45:17.422Z</time>
      </trkpt>
      <trkpt lat="45.33454" lon="4.62187">
        <ele>715.19680671885</ele>
        <time>2022-03-08T17:45:17.809Z</time>
      </trkpt>
      <trkpt lat="45.33513" lon="4.6218">
        <ele>718.28424501534</ele>
        <time>2022-03-08T17:45:18.208Z</time>
      </trkpt>
      <trkpt lat="45.33562" lon="4.62187">
        <ele>721.46776791283</ele>
        <time>2022-03-08T17:45:18.617Z</time>
      </trkpt>
      <trkpt lat="45.33612" lon="4.62205">
        <ele>724.83993578933</ele>
        <time>2022-03-08T17:45:19.036Z</time>
      </trkpt>
      <trkpt lat="45.33636" lon="4.62202">
        <ele>728.17917219644</ele>
        <time>2022-03-08T17:45:19.460Z</time>
      </trkpt>
      <trkpt lat="45.33665" lon="4.62173">
        <ele>731.6820287009</ele>
        <time>2022-03-08T17:45:19.891Z</time>
      </trkpt>
      <trkpt lat="45.33734" lon="4.62013">
        <ele>736.2664253004</ele>
        <time>2022-03-08T17:45:20.348Z</time>
      </trkpt>
      <trkpt lat="45.33773" lon="4.61949">
        <ele>739.99948752074</ele>
        <time>2022-03-08T17:45:20.817Z</time>
      </trkpt>
      <trkpt lat="45.33826" lon="4.61933">
        <ele>743.34890374829</ele>
        <time>2022-03-08T17:45:21.297Z</time>
      </trkpt>
      <trkpt lat="45.33867" lon="4.61902">
        <ele>747.14893046326</ele>
        <time>2022-03-08T17:45:21.786Z</time>
      </trkpt>
      <trkpt lat="45.33867" lon="4.61902">
        <ele>750.41936230776</ele>
        <time>2022-03-08T17:45:22.275Z</time>
      </trkpt>
      <trkpt lat="45.33878" lon="4.61894">
        <ele>753.71907804189</ele>
        <time>2022-03-08T17:45:22.767Z</time>
      </trkpt>
      <trkpt lat="45.33891" lon="4.6189">
        <ele>756.91139507355</ele>
        <time>2022-03-08T17:45:23.262Z</time>
      </trkpt>
      <trkpt lat="45.33929" lon="4.61891">
        <ele>760.31934761254</ele>
        <time>2022-03-08T17:45:23.764Z</time>
      </trkpt>
      <trkpt lat="45.33954" lon="4.61909">
        <ele>763.47306240524</ele>
        <time>2022-03-08T17:45:24.272Z</time>
      </trkpt>
      <trkpt lat="45.33966" lon="4.61926">
        <ele>766.2956577435</ele>
        <time>2022-03-08T17:45:24.783Z</time>
      </trkpt>
      <trkpt lat="45.33975" lon="4.61922">
        <ele>769.18302732393</ele>
        <time>2022-03-08T17:45:25.296Z</time>
      </trkpt>
      <trkpt lat="45.33973" lon="4.61909">
        <ele>771.77060260502</ele>
        <time>2022-03-08T17:45:25.811Z</time>
      </trkpt>
      <trkpt lat="45.3392" lon="4.61845">
        <ele>773.88108732083</ele>
        <time>2022-03-08T17:45:26.340Z</time>
      </trkpt>
      <trkpt lat="45.33867" lon="4.61815">
        <ele>775.77631060028</ele>
        <time>2022-03-08T17:45:26.880Z</time>
      </trkpt>
      <trkpt lat="45.33867" lon="4.61815">
        <ele>777.84138096577</ele>
        <time>2022-03-08T17:45:27.420Z</time>
      </trkpt>
      <trkpt lat="45.33851" lon="4.61806">
        <ele>779.81063718111</ele>
        <time>2022-03-08T17:45:27.964Z</time>
      </trkpt>
      <trkpt lat="45.33837" lon="4.61791">
        <ele>781.85733063519</ele>
        <time>2022-03-08T17:45:28.511Z</time>
      </trkpt>
      <trkpt lat="45.33836" lon="4.61782">
        <ele>783.75287891563</ele>
        <time>2022-03-08T17:45:29.059Z</time>
      </trkpt>
      <trkpt lat="45.33825" lon="4.61696">
        <ele>786.22020554549</ele>
        <time>2022-03-08T17:45:29.620Z</time>
      </trkpt>
      <trkpt lat="45.33825" lon="4.6166">
        <ele>788.10470989728</ele>
        <time>2022-03-08T17:45:30.186Z</time>
      </trkpt>
      <trkpt lat="45.33825" lon="4.6166">
        <ele>789.65628313926</ele>
        <time>2022-03-08T17:45:30.752Z</time>
      </trkpt>
      <trkpt lat="45.33825" lon="4.61621">
        <ele>791.27712674146</ele>
        <time>2022-03-08T17:45:31.323Z</time>
      </trkpt>
      <trkpt lat="45.33809" lon="4.61544">
        <ele>792.75398811762</ele>
        <time>2022-03-08T17:45:31.906Z</time>
      </trkpt>
      <trkpt lat="45.33807" lon="4.61491">
        <ele>793.86249040648</ele>
        <time>2022-03-08T17:45:32.496Z</time>
      </trkpt>
      <trkpt lat="45.33867" lon="4.61463">
        <ele>795.14278549331</ele>
        <time>2022-03-08T17:45:33.099Z</time>
      </trkpt>
      <trkpt lat="45.33867" lon="4.61463">
        <ele>796.19237346146</ele>
        <time>2022-03-08T17:45:33.702Z</time>
      </trkpt>
      <trkpt lat="45.33895" lon="4.61451">
        <ele>797.33519199</ele>
        <time>2022-03-08T17:45:34.311Z</time>
      </trkpt>
      <trkpt lat="45.33926" lon="4.61416">
        <ele>798.30195383867</ele>
        <time>2022-03-08T17:45:34.927Z</time>
      </trkpt>
      <trkpt lat="45.34009" lon="4.61344">
        <ele>799.15449030997</ele>
        <time>2022-03-08T17:45:35.563Z</time>
      </trkpt>
      <trkpt lat="45.34072" lon="4.61292">
        <ele>800.06528048983</ele>
        <time>2022-03-08T17:45:36.214Z</time>
      </trkpt>
      <trkpt lat="45.34091" lon="4.61281">
        <ele>800.69071782443</ele>
        <time>2022-03-08T17:45:36.869Z</time>
      </trkpt>
      <trkpt lat="45.34091" lon="4.61281">
        <ele>801.26307802315</ele>
        <time>2022-03-08T17:45:37.524Z</time>
      </trkpt>
      <trkpt lat="45.34094" lon="4.61279">
        <ele>801.76758655468</ele>
        <time>2022-03-08T17:45:38.179Z</time>
      </trkpt>
      <trkpt lat="45.34156" lon="4.61272">
        <ele>802.41591271273</ele>
        <time>2022-03-08T17:45:38.847Z</time>
      </trkpt>
      <trkpt lat="45.34219" lon="4.61258">
        <ele>802.83556288681</ele>
        <time>2022-03-08T17:45:39.528Z</time>
      </trkpt>
      <trkpt lat="45.34249" lon="4.61257">
        <ele>803.33120343771</ele>
        <time>2022-03-08T17:45:40.215Z</time>
      </trkpt>
      <trkpt lat="45.34285" lon="4.61262">
        <ele>803.75707275361</ele>
        <time>2022-03-08T17:45:40.909Z</time>
      </trkpt>
      <trkpt lat="45.34285" lon="4.61262">
        <ele>804.12468739269</ele>
        <time>2022-03-08T17:45:41.603Z</time>
      </trkpt>
      <trkpt lat="45.3434" lon="4.61285">
        <ele>804.47683163738</ele>
        <time>2022-03-08T17:45:42.308Z</time>
      </trkpt>
      <trkpt lat="45.34377" lon="4.61307">
        <ele>804.72187862842</ele>
        <time>2022-03-08T17:45:43.021Z</time>
      </trkpt>
      <trkpt lat="45.3442" lon="4.61352">
        <ele>805.21686244005</ele>
        <time>2022-03-08T17:45:43.745Z</time>
      </trkpt>
      <trkpt lat="45.34427" lon="4.61358">
        <ele>805.68496892112</ele>
        <time>2022-03-08T17:45:44.471Z</time>
      </trkpt>
      <trkpt lat="45.34464" lon="4.61386">
        <ele>806.20121595352</ele>
        <time>2022-03-08T17:45:45.205Z</time>
      </trkpt>
      <trkpt lat="45.34486" lon="4.61394">
        <ele>806.87393633751</ele>
        <time>2022-03-08T17:45:45.944Z</time>
      </trkpt>
      <trkpt lat="45.34538" lon="4.61391">
        <ele>807.77221885391</ele>
        <time>2022-03-08T17:45:46.693Z</time>
      </trkpt>
      <trkpt lat="45.34591" lon="4.61359">
        <ele>808.4175217064</ele>
        <time>2022-03-08T17:45:47.454Z</time>
      </trkpt>
      <trkpt lat="45.34634" lon="4.61344">
        <ele>809.24590879981</ele>
        <time>2022-03-08T17:45:48.223Z</time>
      </trkpt>
      <trkpt lat="45.3466" lon="4.6133">
        <ele>810.15351327545</ele>
        <time>2022-03-08T17:45:48.998Z</time>
      </trkpt>
      <trkpt lat="45.34754" lon="4.61336">
        <ele>811.61165320989</ele>
        <time>2022-03-08T17:45:49.792Z</time>
      </trkpt>
      <trkpt lat="45.34803" lon="4.61335">
        <ele>812.78573240673</ele>
        <time>2022-03-08T17:45:50.596Z</time>
      </trkpt>
      <trkpt lat="45.34812" lon="4.61331">
        <ele>814.08362762384</ele>
        <time>2022-03-08T17:45:51.401Z</time>
      </trkpt>
      <trkpt lat="45.34812" lon="4.61331">
        <ele>815.44103662216</ele>
        <time>2022-03-08T17:45:52.206Z</time>
      </trkpt>
      <trkpt lat="45.3483" lon="4.61326">
        <ele>816.97212959446</ele>
        <time>2022-03-08T17:45:53.015Z</time>
      </trkpt>
      <trkpt lat="45.34874" lon="4.61286">
        <ele>818.78027034212</ele>
        <time>2022-03-08T17:45:53.835Z</time>
      </trkpt>
      <trkpt lat="45.34878" lon="4.61296">
        <ele>820.43732889443</ele>
        <time>2022-03-08T17:45:54.656Z</time>
      </trkpt>
      <trkpt lat="45.34876" lon="4.61288">
        <ele>820</ele>
        <time>2020-07-25T11:11:39+02:00</time>
      </trkpt>
      <trkpt lat="45.34894" lon="4.61253">
        <ele>823</ele>
        <time>2020-07-25T11:11:51+02:00</time>
      </trkpt>
      <trkpt lat="45.3488" lon="4.61257">
        <ele>821</ele>
        <time>2020-07-25T11:11:55+02:00</time>
      </trkpt>
      <trkpt lat="45.34834" lon="4.61273">
        <ele>814</ele>
        <time>2020-07-25T11:12:23+02:00</time>
      </trkpt>
      <trkpt lat="45.34827" lon="4.61253">
        <ele>813</ele>
        <time>2020-07-25T11:12:45+02:00</time>
      </trkpt>
      <trkpt lat="45.34803" lon="4.61248">
        <ele>811</ele>
        <time>2020-07-25T11:12:52+02:00</time>
      </trkpt>
      <trkpt lat="45.34791" lon="4.61234">
        <ele>809</ele>
        <time>2020-07-25T11:12:56+02:00</time>
      </trkpt>
      <trkpt lat="45.34752" lon="4.61158">
        <ele>802</ele>
        <time>2020-07-25T11:13:09+02:00</time>
      </trkpt>
      <trkpt lat="45.34726" lon="4.61134">
        <ele>798</ele>
      </trkpt>
      <trkpt lat="45.34709" lon="4.61121">
        <ele>795</ele>
        <time>2020-07-25T11:13:15+02:00</time>
      </trkpt>
      <trkpt lat="45.34644" lon="4.61086">
        <ele>784</ele>
        <time>2020-07-25T11:13:26+02:00</time>
      </trkpt>
      <trkpt lat="45.34613" lon="4.61029">
        <ele>777</ele>
        <time>2020-07-25T11:13:34+02:00</time>
      </trkpt>
      <trkpt lat="45.34612" lon="4.61003">
        <ele>776</ele>
        <time>2020-07-25T11:13:37+02:00</time>
      </trkpt>
      <trkpt lat="45.34621" lon="4.60952">
        <ele>777</ele>
      </trkpt>
      <trkpt lat="45.34624" lon="4.60907">
        <ele>776</ele>
      </trkpt>
      <trkpt lat="45.34624" lon="4.60894">
        <ele>777</ele>
        <time>2020-07-25T11:14:15+02:00</time>
      </trkpt>
      <trkpt lat="45.34658" lon="4.60841">
        <ele>779</ele>
        <time>2020-07-25T11:15:41+02:00</time>
      </trkpt>
      <trkpt lat="45.34658" lon="4.60823">
        <ele>780</ele>
      </trkpt>
      <trkpt lat="45.34659" lon="4.60801">
        <ele>782</ele>
      </trkpt>
      <trkpt lat="45.34656" lon="4.60788">
        <ele>784</ele>
        <time>2020-07-25T11:16:26+02:00</time>
      </trkpt>
      <trkpt lat="45.34612" lon="4.6075">
        <ele>790</ele>
      </trkpt>
      <trkpt lat="45.34591" lon="4.60736">
        <ele>794</ele>
        <time>2020-07-25T11:17:20+02:00</time>
      </trkpt>
      <trkpt lat="45.34578" lon="4.60717">
        <ele>797</ele>
        <time>2020-07-25T11:17:34+02:00</time>
      </trkpt>
      <trkpt lat="45.34542" lon="4.60647">
        <ele>806</ele>
      </trkpt>
      <trkpt lat="45.34503" lon="4.60554">
        <ele>819</ele>
      </trkpt>
      <trkpt lat="45.34482" lon="4.60511">
        <ele>824</ele>
        <time>2020-07-25T11:19:45+02:00</time>
      </trkpt>
      <trkpt lat="45.34464" lon="4.60481">
        <ele>826</ele>
      </trkpt>
      <trkpt lat="45.34442" lon="4.60466">
        <ele>826</ele>
        <time>2020-07-25T11:20:10+02:00</time>
      </trkpt>
      <trkpt lat="45.34438" lon="4.60429">
        <ele>829</ele>
        <time>2020-07-25T11:20:25+02:00</time>
      </trkpt>
      <trkpt lat="45.34444" lon="4.60391">
        <ele>832</ele>
        <time>2020-07-25T11:21:05+02:00</time>
      </trkpt>
      <trkpt lat="45.34413" lon="4.60354">
        <ele>831</ele>
        <time>2020-07-25T11:21:37+02:00</time>
      </trkpt>
      <trkpt lat="45.34402" lon="4.60325">
        <ele>829</ele>
        <time>2020-07-25T11:21:44+02:00</time>
      </trkpt>
      <trkpt lat="45.34416" lon="4.60224">
        <ele>830</ele>
        <time>2020-07-25T11:21:59+02:00</time>
      </trkpt>
      <trkpt lat="45.34418" lon="4.60225">
        <ele>830</ele>
        <time>2020-07-25T11:22:02+02:00</time>
      </trkpt>
      <trkpt lat="45.34423" lon="4.60242">
        <ele>831</ele>
      </trkpt>
      <trkpt lat="45.34432" lon="4.60259">
        <ele>833</ele>
        <time>2020-07-25T11:22:18+02:00</time>
      </trkpt>
      <trkpt lat="45.34448" lon="4.60265">
        <ele>837</ele>
      </trkpt>
      <trkpt lat="45.34464" lon="4.60278">
        <ele>840</ele>
        <time>2020-07-25T11:22:43+02:00</time>
      </trkpt>
      <trkpt lat="45.34475" lon="4.60278">
        <ele>842</ele>
      </trkpt>
      <trkpt lat="45.34489" lon="4.60274">
        <ele>844</ele>
        <time>2020-07-25T11:23:01+02:00</time>
      </trkpt>
      <trkpt lat="45.34504" lon="4.60258">
        <ele>848</ele>
        <time>2020-07-25T11:23:17+02:00</time>
      </trkpt>
      <trkpt lat="45.34516" lon="4.6014">
        <ele>856</ele>
        <time>2020-07-25T11:24:38+02:00</time>
      </trkpt>
      <trkpt lat="45.34521" lon="4.60129">
        <ele>858</ele>
      </trkpt>
      <trkpt lat="45.34529" lon="4.60126">
        <ele>860</ele>
        <time>2020-07-25T11:24:53+02:00</time>
      </trkpt>
      <trkpt lat="45.34533" lon="4.60093">
        <ele>864</ele>
        <time>2020-07-25T11:25:03+02:00</time>
      </trkpt>
      <trkpt lat="45.34525" lon="4.60031">
        <ele>869</ele>
      </trkpt>
      <trkpt lat="45.34506" lon="4.59929">
        <ele>876</ele>
        <time>2020-07-25T11:26:26+02:00</time>
      </trkpt>
      <trkpt lat="45.34506" lon="4.59895">
        <ele>878</ele>
        <time>2020-07-25T11:26:47+02:00</time>
      </trkpt>
      <trkpt lat="45.34516" lon="4.59845">
        <ele>882</ele>
      </trkpt>
      <trkpt lat="45.34513" lon="4.59838">
        <ele>882</ele>
        <time>2020-07-25T11:27:16+02:00</time>
      </trkpt>
      <trkpt lat="45.34476" lon="4.59811">
        <ele>875</ele>
      </trkpt>
      <trkpt lat="45.34468" lon="4.59813">
        <ele>873</ele>
        <time>2020-07-25T11:27:31+02:00</time>
      </trkpt>
      <trkpt lat="45.34458" lon="4.59829">
        <ele>873</ele>
      </trkpt>
      <trkpt lat="45.34451" lon="4.59846">
        <ele>872</ele>
      </trkpt>
      <trkpt lat="45.34447" lon="4.59849">
        <ele>871</ele>
        <time>2020-07-25T11:27:42+02:00</time>
      </trkpt>
      <trkpt lat="45.34441" lon="4.59848">
        <ele>870</ele>
      </trkpt>
      <trkpt lat="45.34436" lon="4.59841">
        <ele>869</ele>
        <time>2020-07-25T11:27:47+02:00</time>
      </trkpt>
      <trkpt lat="45.34434" lon="4.59823">
        <ele>869</ele>
      </trkpt>
      <trkpt lat="45.34437" lon="4.59798">
        <ele>867</ele>
      </trkpt>
      <trkpt lat="45.34437" lon="4.59766">
        <ele>865</ele>
      </trkpt>
      <trkpt lat="45.3444" lon="4.59744">
        <ele>864</ele>
      </trkpt>
      <trkpt lat="45.34441" lon="4.59702">
        <ele>863</ele>
        <time>2020-07-25T11:28:08+02:00</time>
      </trkpt>
      <trkpt lat="45.34441" lon="4.59679">
        <ele>863</ele>
      </trkpt>
      <trkpt lat="45.34438" lon="4.5965">
        <ele>865</ele>
        <time>2020-07-25T11:28:15+02:00</time>
      </trkpt>
      <trkpt lat="45.34425" lon="4.59633">
        <ele>866</ele>
        <time>2020-07-25T11:28:19+02:00</time>
      </trkpt>
      <trkpt lat="45.34417" lon="4.59631">
        <ele>865</ele>
        <time>2020-07-25T11:28:21+02:00</time>
      </trkpt>
      <trkpt lat="45.34379" lon="4.59637">
        <ele>860</ele>
        <time>2020-07-25T11:28:28+02:00</time>
      </trkpt>
      <trkpt lat="45.34359" lon="4.59638">
        <ele>857</ele>
        <time>2020-07-25T11:28:32+02:00</time>
      </trkpt>
      <trkpt lat="45.34329" lon="4.59612">
        <ele>858</ele>
        <time>2020-07-25T11:28:36+02:00</time>
      </trkpt>
      <trkpt lat="45.34301" lon="4.59568">
        <ele>861</ele>
        <time>2020-07-25T11:28:46+02:00</time>
      </trkpt>
      <trkpt lat="45.34261" lon="4.59564">
        <ele>852</ele>
        <time>2020-07-25T11:28:53+02:00</time>
      </trkpt>
      <trkpt lat="45.34248" lon="4.59562">
        <ele>849</ele>
        <time>2020-07-25T11:28:56+02:00</time>
      </trkpt>
      <trkpt lat="45.34239" lon="4.59554">
        <ele>847</ele>
        <time>2020-07-25T11:29:00+02:00</time>
      </trkpt>
      <trkpt lat="45.34247" lon="4.59426">
        <ele>855</ele>
        <time>2020-07-25T11:29:12+02:00</time>
      </trkpt>
      <trkpt lat="45.34244" lon="4.594">
        <ele>857</ele>
        <time>2020-07-25T11:29:15+02:00</time>
      </trkpt>
      <trkpt lat="45.34238" lon="4.59392">
        <ele>859</ele>
        <time>2020-07-25T11:29:20+02:00</time>
      </trkpt>
      <trkpt lat="45.34222" lon="4.59397">
        <ele>860</ele>
        <time>2020-07-25T11:29:27+02:00</time>
      </trkpt>
      <trkpt lat="45.34195" lon="4.59408">
        <ele>859</ele>
        <time>2020-07-25T11:29:33+02:00</time>
      </trkpt>
      <trkpt lat="45.34175" lon="4.59424">
        <ele>857</ele>
      </trkpt>
      <trkpt lat="45.34137" lon="4.59468">
        <ele>847</ele>
        <time>2020-07-25T11:29:51+02:00</time>
      </trkpt>
      <trkpt lat="45.34115" lon="4.59479">
        <ele>845</ele>
        <time>2020-07-25T11:30:06+02:00</time>
      </trkpt>
      <trkpt lat="45.34084" lon="4.5948">
        <ele>847</ele>
      </trkpt>
      <trkpt lat="45.3404" lon="4.59462">
        <ele>851</ele>
        <time>2020-07-25T11:30:26+02:00</time>
      </trkpt>
      <trkpt lat="45.34031" lon="4.59461">
        <ele>851</ele>
        <time>2020-07-25T11:30:38+02:00</time>
      </trkpt>
      <trkpt lat="45.34011" lon="4.5947">
        <ele>850</ele>
        <time>2020-07-25T11:30:44+02:00</time>
      </trkpt>
      <trkpt lat="45.33967" lon="4.59514">
        <ele>848</ele>
        <time>2020-07-25T11:30:53+02:00</time>
      </trkpt>
      <trkpt lat="45.33949" lon="4.59543">
        <ele>845</ele>
        <time>2020-07-25T11:31:03+02:00</time>
      </trkpt>
      <trkpt lat="45.3392" lon="4.59607">
        <ele>839</ele>
      </trkpt>
      <trkpt lat="45.3389" lon="4.59684">
        <ele>833</ele>
        <time>2020-07-25T11:31:16+02:00</time>
      </trkpt>
      <trkpt lat="45.33875" lon="4.597">
        <ele>833</ele>
        <time>2020-07-25T11:31:20+02:00</time>
      </trkpt>
      <trkpt lat="45.33861" lon="4.59701">
        <ele>833</ele>
        <time>2020-07-25T11:31:23+02:00</time>
      </trkpt>
      <trkpt lat="45.33859" lon="4.59658">
        <ele>835</ele>
      </trkpt>
      <trkpt lat="45.33855" lon="4.59638">
        <ele>838</ele>
        <time>2020-07-25T11:32:10+02:00</time>
      </trkpt>
      <trkpt lat="45.33856" lon="4.59631">
        <ele>839</ele>
      </trkpt>
      <trkpt lat="45.33874" lon="4.59614">
        <ele>840</ele>
      </trkpt>
      <trkpt lat="45.33888" lon="4.59591">
        <ele>842</ele>
        <time>2020-07-25T11:32:42+02:00</time>
      </trkpt>
      <trkpt lat="45.339" lon="4.59556">
        <ele>847</ele>
      </trkpt>
      <trkpt lat="45.33908" lon="4.59508">
        <ele>856</ele>
        <time>2020-07-25T11:33:03+02:00</time>
      </trkpt>
      <trkpt lat="45.33909" lon="4.59451">
        <ele>863</ele>
      </trkpt>
      <trkpt lat="45.33915" lon="4.59412">
        <ele>867</ele>
        <time>2020-07-25T11:34:24+02:00</time>
      </trkpt>
      <trkpt lat="45.33946" lon="4.59308">
        <ele>886</ele>
        <time>2020-07-25T11:35:23+02:00</time>
      </trkpt>
      <trkpt lat="45.33955" lon="4.59263">
        <ele>895</ele>
        <time>2020-07-25T11:35:47+02:00</time>
      </trkpt>
      <trkpt lat="45.33981" lon="4.59216">
        <ele>902</ele>
      </trkpt>
      <trkpt lat="45.34006" lon="4.59166">
        <ele>912</ele>
      </trkpt>
      <trkpt lat="45.34016" lon="4.59137">
        <ele>918</ele>
        <time>2020-07-25T11:39:10+02:00</time>
      </trkpt>
      <trkpt lat="45.34045" lon="4.59107">
        <ele>923</ele>
        <time>2020-07-25T11:39:49+02:00</time>
      </trkpt>
      <trkpt lat="45.34087" lon="4.59077">
        <ele>926</ele>
      </trkpt>
      <trkpt lat="45.34122" lon="4.59058">
        <ele>932</ele>
        <time>2020-07-25T11:42:24+02:00</time>
      </trkpt>
      <trkpt lat="45.34131" lon="4.59048">
        <ele>934</ele>
      </trkpt>
      <trkpt lat="45.34135" lon="4.59038">
        <ele>936</ele>
        <time>2020-07-25T11:43:20+02:00</time>
      </trkpt>
      <trkpt lat="45.34141" lon="4.58978">
        <ele>945</ele>
        <time>2020-07-25T11:43:50+02:00</time>
      </trkpt>
      <trkpt lat="45.34152" lon="4.58907">
        <ele>953</ele>
        <time>2020-07-25T11:45:23+02:00</time>
      </trkpt>
      <trkpt lat="45.34147" lon="4.58796">
        <ele>966</ele>
        <time>2020-07-25T11:46:04+02:00</time>
      </trkpt>
      <trkpt lat="45.34137" lon="4.5874">
        <ele>975</ele>
        <time>2020-07-25T11:49:06+02:00</time>
      </trkpt>
      <trkpt lat="45.3411" lon="4.58688">
        <ele>985</ele>
        <time>2020-07-25T11:49:26+02:00</time>
      </trkpt>
      <trkpt lat="45.34117" lon="4.58594">
        <ele>992</ele>
        <time>2020-07-25T11:50:36+02:00</time>
      </trkpt>
      <trkpt lat="45.34109" lon="4.58554">
        <ele>995</ele>
        <time>2020-07-25T11:51:49+02:00</time>
      </trkpt>
      <trkpt lat="45.34109" lon="4.58443">
        <ele>998</ele>
        <time>2020-07-25T11:52:27+02:00</time>
      </trkpt>
      <trkpt lat="45.34105" lon="4.58425">
        <ele>1000</ele>
        <time>2020-07-25T11:52:36+02:00</time>
      </trkpt>
      <trkpt lat="45.34081" lon="4.58397">
        <ele>1008</ele>
        <time>2020-07-25T11:53:05+02:00</time>
      </trkpt>
      <trkpt lat="45.34072" lon="4.58366">
        <ele>1014</ele>
        <time>2020-07-25T11:53:21+02:00</time>
      </trkpt>
      <trkpt lat="45.34081" lon="4.58309">
        <ele>1018</ele>
        <time>2020-07-25T11:53:51+02:00</time>
      </trkpt>
      <trkpt lat="45.341" lon="4.58251">
        <ele>1021</ele>
        <time>2020-07-25T11:54:15+02:00</time>
      </trkpt>
      <trkpt lat="45.34119" lon="4.58207">
        <ele>1025</ele>
        <time>2020-07-25T11:54:32+02:00</time>
      </trkpt>
      <trkpt lat="45.34144" lon="4.58183">
        <ele>1026</ele>
        <time>2020-07-25T11:54:43+02:00</time>
      </trkpt>
      <trkpt lat="45.34203" lon="4.58159">
        <ele>1028</ele>
        <time>2020-07-25T11:55:12+02:00</time>
      </trkpt>
      <trkpt lat="45.34228" lon="4.58162">
        <ele>1028</ele>
        <time>2020-07-25T11:55:24+02:00</time>
      </trkpt>
      <trkpt lat="45.3425" lon="4.58165">
        <ele>1027</ele>
      </trkpt>
      <trkpt lat="45.3429" lon="4.58148">
        <ele>1030</ele>
        <time>2020-07-25T11:55:53+02:00</time>
      </trkpt>
      <trkpt lat="45.34374" lon="4.58098">
        <ele>1033</ele>
        <time>2020-07-25T11:56:28+02:00</time>
      </trkpt>
      <trkpt lat="45.34411" lon="4.58079">
        <ele>1032</ele>
        <time>2020-07-25T11:56:40+02:00</time>
      </trkpt>
      <trkpt lat="45.34472" lon="4.58099">
        <ele>1030</ele>
      </trkpt>
      <trkpt lat="45.34519" lon="4.58104">
        <ele>1031</ele>
        <time>2020-07-25T11:57:16+02:00</time>
      </trkpt>
      <trkpt lat="45.34558" lon="4.58119">
        <ele>1035</ele>
        <time>2020-07-25T11:57:29+02:00</time>
      </trkpt>
      <trkpt lat="45.34567" lon="4.58116">
        <ele>1035</ele>
        <time>2020-07-25T11:57:32+02:00</time>
      </trkpt>
      <trkpt lat="45.34593" lon="4.58051">
        <ele>1037</ele>
      </trkpt>
      <trkpt lat="45.34657" lon="4.57941">
        <ele>1036</ele>
        <time>2020-07-25T11:58:38+02:00</time>
      </trkpt>
      <trkpt lat="45.34702" lon="4.57902">
        <ele>1037</ele>
        <time>2020-07-25T11:58:58+02:00</time>
      </trkpt>
      <trkpt lat="45.34794" lon="4.57818">
        <ele>1033</ele>
        <time>2020-07-25T11:59:16+02:00</time>
      </trkpt>
      <trkpt lat="45.34832" lon="4.578">
        <ele>1032</ele>
        <time>2020-07-25T11:59:21+02:00</time>
      </trkpt>
      <trkpt lat="45.34904" lon="4.57777">
        <ele>1025</ele>
        <time>2020-07-25T11:59:32+02:00</time>
      </trkpt>
      <trkpt lat="45.34938" lon="4.57778">
        <ele>1024</ele>
        <time>2020-07-25T11:59:37+02:00</time>
      </trkpt>
      <trkpt lat="45.34982" lon="4.57758">
        <ele>1020</ele>
        <time>2020-07-25T11:59:43+02:00</time>
      </trkpt>
      <trkpt lat="45.35016" lon="4.57715">
        <ele>1016</ele>
        <time>2020-07-25T11:59:56+02:00</time>
      </trkpt>
      <trkpt lat="45.35039" lon="4.57673">
        <ele>1012</ele>
        <time>2020-07-25T12:00:05+02:00</time>
      </trkpt>
      <trkpt lat="45.35104" lon="4.57594">
        <ele>1007</ele>
        <time>2020-07-25T12:00:18+02:00</time>
      </trkpt>
      <trkpt lat="45.35182" lon="4.57555">
        <ele>1006</ele>
      </trkpt>
      <trkpt lat="45.35237" lon="4.57524">
        <ele>1000</ele>
        <time>2020-07-25T12:00:42+02:00</time>
      </trkpt>
      <trkpt lat="45.35258" lon="4.57519">
        <ele>998</ele>
        <time>2020-07-25T12:00:46+02:00</time>
      </trkpt>
      <trkpt lat="45.35289" lon="4.5752">
        <ele>995</ele>
        <time>2020-07-25T12:00:52+02:00</time>
      </trkpt>
      <trkpt lat="45.35324" lon="4.57545">
        <ele>996</ele>
        <time>2020-07-25T12:00:58+02:00</time>
      </trkpt>
      <trkpt lat="45.35366" lon="4.57604">
        <ele>999</ele>
        <time>2020-07-25T12:01:10+02:00</time>
      </trkpt>
      <trkpt lat="45.35429" lon="4.57747">
        <ele>1004</ele>
        <time>2020-07-25T12:01:37+02:00</time>
      </trkpt>
      <trkpt lat="45.35453" lon="4.57816">
        <ele>1007</ele>
        <time>2020-07-25T12:01:52+02:00</time>
      </trkpt>
      <trkpt lat="45.35459" lon="4.57885">
        <ele>1013</ele>
        <time>2020-07-25T12:02:12+02:00</time>
      </trkpt>
      <trkpt lat="45.35465" lon="4.57921">
        <ele>1015</ele>
        <time>2020-07-25T12:02:28+02:00</time>
      </trkpt>
      <trkpt lat="45.35477" lon="4.58035">
        <ele>1022</ele>
        <time>2020-07-25T12:03:22+02:00</time>
      </trkpt>
      <trkpt lat="45.35495" lon="4.58118">
        <ele>1028</ele>
        <time>2020-07-25T12:04:07+02:00</time>
      </trkpt>
      <trkpt lat="45.35509" lon="4.58149">
        <ele>1031</ele>
        <time>2020-07-25T12:04:25+02:00</time>
      </trkpt>
      <trkpt lat="45.35537" lon="4.58189">
        <ele>1035</ele>
        <time>2020-07-25T12:04:50+02:00</time>
      </trkpt>
      <trkpt lat="45.35555" lon="4.58204">
        <ele>1037</ele>
        <time>2020-07-25T12:05:03+02:00</time>
      </trkpt>
      <trkpt lat="45.35666" lon="4.58259">
        <ele>1047</ele>
        <time>2020-07-25T12:06:12+02:00</time>
      </trkpt>
      <trkpt lat="45.35716" lon="4.58262">
        <ele>1050</ele>
        <time>2020-07-25T12:06:38+02:00</time>
      </trkpt>
      <trkpt lat="45.35791" lon="4.58225">
        <ele>1046</ele>
        <time>2020-07-25T12:07:03+02:00</time>
      </trkpt>
      <trkpt lat="45.35836" lon="4.58214">
        <ele>1049</ele>
        <time>2020-07-25T12:07:07+02:00</time>
      </trkpt>
      <trkpt lat="45.35871" lon="4.58223">
        <ele>1055</ele>
        <time>2020-07-25T12:07:18+02:00</time>
      </trkpt>
      <trkpt lat="45.35884" lon="4.58225">
        <ele>1056</ele>
        <time>2020-07-25T12:07:21+02:00</time>
      </trkpt>
      <trkpt lat="45.35888" lon="4.58205">
        <ele>1056</ele>
        <time>2020-07-25T12:07:25+02:00</time>
      </trkpt>
      <trkpt lat="45.35884" lon="4.5819">
        <ele>1054</ele>
        <time>2020-07-25T12:07:28+02:00</time>
      </trkpt>
      <trkpt lat="45.35853" lon="4.58137">
        <ele>1049</ele>
      </trkpt>
      <trkpt lat="45.35836" lon="4.58092">
        <ele>1049</ele>
        <time>2020-07-25T12:08:07+02:00</time>
      </trkpt>
      <trkpt lat="45.35843" lon="4.58037">
        <ele>1055</ele>
        <time>2020-07-25T12:08:42+02:00</time>
      </trkpt>
      <trkpt lat="45.35842" lon="4.5791">
        <ele>1061</ele>
      </trkpt>
      <trkpt lat="45.3584" lon="4.57832">
        <ele>1066</ele>
        <time>2020-07-25T12:09:36+02:00</time>
      </trkpt>
      <trkpt lat="45.35848" lon="4.57717">
        <ele>1076</ele>
        <time>2020-07-25T12:10:13+02:00</time>
      </trkpt>
      <trkpt lat="45.35824" lon="4.57595">
        <ele>1080</ele>
        <time>2020-07-25T12:10:48+02:00</time>
      </trkpt>
      <trkpt lat="45.35857" lon="4.57462">
        <ele>1074</ele>
        <time>2020-07-25T12:11:23+02:00</time>
      </trkpt>
      <trkpt lat="45.35871" lon="4.57433">
        <ele>1073</ele>
        <time>2020-07-25T12:11:27+02:00</time>
      </trkpt>
      <trkpt lat="45.35896" lon="4.57402">
        <ele>1074</ele>
        <time>2020-07-25T12:11:35+02:00</time>
      </trkpt>
      <trkpt lat="45.35905" lon="4.57361">
        <ele>1071</ele>
        <time>2020-07-25T12:12:36+02:00</time>
      </trkpt>
      <trkpt lat="45.35973" lon="4.57279">
        <ele>1063</ele>
        <time>2020-07-25T12:12:53+02:00</time>
      </trkpt>
      <trkpt lat="45.36053" lon="4.57247">
        <ele>1059</ele>
        <time>2020-07-25T12:13:14+02:00</time>
      </trkpt>
      <trkpt lat="45.36217" lon="4.5718">
        <ele>1053</ele>
        <time>2020-07-25T12:14:08+02:00</time>
      </trkpt>
      <trkpt lat="45.36218" lon="4.57161">
        <ele>1051</ele>
        <time>2020-07-25T12:14:53+02:00</time>
      </trkpt>
      <trkpt lat="45.36154" lon="4.57072">
        <ele>1048</ele>
        <time>2020-07-25T12:16:26+02:00</time>
      </trkpt>
      <trkpt lat="45.36149" lon="4.57003">
        <ele>1052</ele>
        <time>2020-07-25T12:16:52+02:00</time>
      </trkpt>
      <trkpt lat="45.36189" lon="4.56914">
        <ele>1057</ele>
      </trkpt>
      <trkpt lat="45.36278" lon="4.5683">
        <ele>1064</ele>
      </trkpt>
      <trkpt lat="45.36339" lon="4.56752">
        <ele>1071</ele>
        <time>2020-07-25T12:19:42+02:00</time>
      </trkpt>
      <trkpt lat="45.36347" lon="4.56714">
        <ele>1074</ele>
        <time>2020-07-25T12:19:54+02:00</time>
      </trkpt>
      <trkpt lat="45.36316" lon="4.56641">
        <ele>1077</ele>
        <time>2020-07-25T12:20:14+02:00</time>
      </trkpt>
      <trkpt lat="45.36305" lon="4.56635">
        <ele>1080</ele>
        <time>2020-07-25T12:20:42+02:00</time>
      </trkpt>
      <trkpt lat="45.36218" lon="4.56762">
        <ele>1060</ele>
        <time>2020-07-25T12:22:29+02:00</time>
      </trkpt>
      <trkpt lat="45.3613" lon="4.56813">
        <ele>1053</ele>
        <time>2020-07-25T12:22:49+02:00</time>
      </trkpt>
      <trkpt lat="45.36082" lon="4.56829">
        <ele>1051</ele>
        <time>2020-07-25T12:23:02+02:00</time>
      </trkpt>
      <trkpt lat="45.36032" lon="4.56875">
        <ele>1046</ele>
        <time>2020-07-25T12:23:18+02:00</time>
      </trkpt>
      <trkpt lat="45.3598" lon="4.56903">
        <ele>1041</ele>
        <time>2020-07-25T12:23:27+02:00</time>
      </trkpt>
      <trkpt lat="45.35956" lon="4.56945">
        <ele>1030</ele>
        <time>2020-07-25T12:24:49+02:00</time>
      </trkpt>
      <trkpt lat="45.35933" lon="4.56954">
        <ele>1027</ele>
        <time>2020-07-25T12:24:53+02:00</time>
      </trkpt>
      <trkpt lat="45.35814" lon="4.56953">
        <ele>1026</ele>
        <time>2020-07-25T12:25:20+02:00</time>
      </trkpt>
      <trkpt lat="45.35753" lon="4.56901">
        <ele>1043</ele>
        <time>2020-07-25T12:26:47+02:00</time>
      </trkpt>
      <trkpt lat="45.35698" lon="4.56873">
        <ele>1051</ele>
        <time>2020-07-25T12:27:18+02:00</time>
      </trkpt>
      <trkpt lat="45.35592" lon="4.56832">
        <ele>1057</ele>
        <time>2020-07-25T12:28:01+02:00</time>
      </trkpt>
      <trkpt lat="45.35544" lon="4.56797">
        <ele>1062</ele>
        <time>2020-07-25T12:28:43+02:00</time>
      </trkpt>
      <trkpt lat="45.35485" lon="4.56738">
        <ele>1070</ele>
        <time>2020-07-25T12:29:35+02:00</time>
      </trkpt>
      <trkpt lat="45.35433" lon="4.5668">
        <ele>1075</ele>
        <time>2020-07-25T12:30:27+02:00</time>
      </trkpt>
      <trkpt lat="45.35384" lon="4.56553">
        <ele>1079</ele>
        <time>2020-07-25T12:32:26+02:00</time>
      </trkpt>
      <trkpt lat="45.35402" lon="4.56541">
        <ele>1083</ele>
        <time>2020-07-25T12:33:53+02:00</time>
      </trkpt>
      <trkpt lat="45.35425" lon="4.56497">
        <ele>1089</ele>
        <time>2020-07-25T12:34:25+02:00</time>
      </trkpt>
      <trkpt lat="45.35445" lon="4.5647">
        <ele>1093</ele>
        <time>2020-07-25T12:34:49+02:00</time>
      </trkpt>
      <trkpt lat="45.35539" lon="4.5638">
        <ele>1114</ele>
        <time>2020-07-25T12:36:27+02:00</time>
      </trkpt>
      <trkpt lat="45.35565" lon="4.56343">
        <ele>1118</ele>
        <time>2020-07-25T12:36:57+02:00</time>
      </trkpt>
      <trkpt lat="45.35589" lon="4.56325">
        <ele>1122</ele>
        <time>2020-07-25T12:37:17+02:00</time>
      </trkpt>
      <trkpt lat="45.35662" lon="4.56299">
        <ele>1132</ele>
        <time>2020-07-25T12:38:09+02:00</time>
      </trkpt>
      <trkpt lat="45.35789" lon="4.56213">
        <ele>1144</ele>
        <time>2020-07-25T12:39:38+02:00</time>
      </trkpt>
      <trkpt lat="45.35866" lon="4.56195">
        <ele>1150</ele>
        <time>2020-07-25T12:40:25+02:00</time>
      </trkpt>
      <trkpt lat="45.35925" lon="4.56163">
        <ele>1154</ele>
        <time>2020-07-25T12:40:58+02:00</time>
      </trkpt>
      <trkpt lat="45.35982" lon="4.56125">
        <ele>1156</ele>
        <time>2020-07-25T12:41:28+02:00</time>
      </trkpt>
      <trkpt lat="45.3606" lon="4.56053">
        <ele>1161</ele>
      </trkpt>
      <trkpt lat="45.36116" lon="4.55987">
        <ele>1164</ele>
        <time>2020-07-25T12:43:43+02:00</time>
      </trkpt>
      <trkpt lat="45.36141" lon="4.55949">
        <ele>1167</ele>
        <time>2020-07-25T12:43:58+02:00</time>
      </trkpt>
      <trkpt lat="45.36149" lon="4.559">
        <ele>1169</ele>
        <time>2020-07-25T12:44:15+02:00</time>
      </trkpt>
      <trkpt lat="45.36182" lon="4.55823">
        <ele>1178</ele>
        <time>2020-07-25T12:45:02+02:00</time>
      </trkpt>
      <trkpt lat="45.36193" lon="4.55741">
        <ele>1187</ele>
        <time>2020-07-25T12:45:50+02:00</time>
      </trkpt>
      <trkpt lat="45.3621" lon="4.55664">
        <ele>1191</ele>
        <time>2020-07-25T12:47:33+02:00</time>
      </trkpt>
      <trkpt lat="45.36211" lon="4.556">
        <ele>1193</ele>
        <time>2020-07-25T12:47:51+02:00</time>
      </trkpt>
      <trkpt lat="45.36218" lon="4.55566">
        <ele>1194</ele>
        <time>2020-07-25T12:47:59+02:00</time>
      </trkpt>
      <trkpt lat="45.36317" lon="4.55359">
        <ele>1203</ele>
        <time>2020-07-25T12:48:48+02:00</time>
      </trkpt>
      <trkpt lat="45.36346" lon="4.55299">
        <ele>1207</ele>
      </trkpt>
      <trkpt lat="45.36368" lon="4.55237">
        <ele>1212</ele>
        <time>2020-07-25T12:49:30+02:00</time>
      </trkpt>
      <trkpt lat="45.3638" lon="4.55212">
        <ele>1215</ele>
        <time>2020-07-25T12:49:37+02:00</time>
      </trkpt>
      <trkpt lat="45.3641" lon="4.55026">
        <ele>1222</ele>
        <time>2020-07-25T12:50:30+02:00</time>
      </trkpt>
      <trkpt lat="45.36448" lon="4.54901">
        <ele>1229</ele>
        <time>2020-07-25T12:51:14+02:00</time>
      </trkpt>
      <trkpt lat="45.36464" lon="4.54823">
        <ele>1230</ele>
        <time>2020-07-25T12:51:53+02:00</time>
      </trkpt>
      <trkpt lat="45.36509" lon="4.54739">
        <ele>1237</ele>
        <time>2020-07-25T12:52:32+02:00</time>
      </trkpt>
      <trkpt lat="45.3655" lon="4.5466">
        <ele>1237</ele>
        <time>2020-07-25T12:53:28+02:00</time>
      </trkpt>
      <trkpt lat="45.36605" lon="4.54602">
        <ele>1238</ele>
        <time>2020-07-25T12:53:47+02:00</time>
      </trkpt>
      <trkpt lat="45.36718" lon="4.54521">
        <ele>1230</ele>
        <time>2020-07-25T12:54:14+02:00</time>
      </trkpt>
      <trkpt lat="45.3679" lon="4.54494">
        <ele>1231</ele>
        <time>2020-07-25T12:55:13+02:00</time>
      </trkpt>
      <trkpt lat="45.36835" lon="4.54461">
        <ele>1230</ele>
        <time>2020-07-25T12:55:29+02:00</time>
      </trkpt>
      <trkpt lat="45.36878" lon="4.54454">
        <ele>1232</ele>
        <time>2020-07-25T12:55:38+02:00</time>
      </trkpt>
      <trkpt lat="45.36902" lon="4.54437">
        <ele>1230</ele>
        <time>2020-07-25T12:55:47+02:00</time>
      </trkpt>
      <trkpt lat="45.36942" lon="4.54387">
        <ele>1225</ele>
        <time>2020-07-25T12:55:55+02:00</time>
      </trkpt>
      <trkpt lat="45.36973" lon="4.54313">
        <ele>1221</ele>
      </trkpt>
      <trkpt lat="45.36987" lon="4.54286">
        <ele>1215.7</ele>
      </trkpt>
      <trkpt lat="45.37009" lon="4.54278">
        <ele>1216</ele>
      </trkpt>
      <trkpt lat="45.37011" lon="4.54292">
        <ele>1223</ele>
      </trkpt>
      <trkpt lat="45.3701" lon="4.54335">
        <ele>1223</ele>
      </trkpt>
      <trkpt lat="45.37018" lon="4.54377">
        <ele>1227</ele>
        <time>2020-07-25T09:10:46+02:00</time>
      </trkpt>
      <trkpt lat="45.37033" lon="4.54401">
        <ele>1229</ele>
        <time>2020-07-25T09:11:23+02:00</time>
      </trkpt>
      <trkpt lat="45.37091" lon="4.54461">
        <ele>1237</ele>
      </trkpt>
      <trkpt lat="45.37109" lon="4.54486">
        <ele>1239</ele>
        <time>2020-07-25T09:12:00+02:00</time>
      </trkpt>
      <trkpt lat="45.37146" lon="4.5451">
        <ele>1241</ele>
        <time>2020-07-25T09:12:12+02:00</time>
      </trkpt>
      <trkpt lat="45.37179" lon="4.54518">
        <ele>1243</ele>
        <time>2020-07-25T09:12:24+02:00</time>
      </trkpt>
      <trkpt lat="45.37232" lon="4.54508">
        <ele>1245</ele>
        <time>2020-07-25T09:12:57+02:00</time>
      </trkpt>
      <trkpt lat="45.37264" lon="4.54493">
        <ele>1244</ele>
        <time>2020-07-25T09:13:07+02:00</time>
      </trkpt>
      <trkpt lat="45.37301" lon="4.54486">
        <ele>1244</ele>
        <time>2020-07-25T09:13:18+02:00</time>
      </trkpt>
      <trkpt lat="45.37358" lon="4.54499">
        <ele>1247</ele>
        <time>2020-07-25T09:13:35+02:00</time>
      </trkpt>
      <trkpt lat="45.37397" lon="4.54514">
        <ele>1248</ele>
      </trkpt>
      <trkpt lat="45.37412" lon="4.54528">
        <ele>1250</ele>
        <time>2020-07-25T09:13:52+02:00</time>
      </trkpt>
      <trkpt lat="45.37429" lon="4.54544">
        <ele>1250</ele>
        <time>2020-07-25T09:13:59+02:00</time>
      </trkpt>
      <trkpt lat="45.37453" lon="4.54582">
        <ele>1252</ele>
        <time>2020-07-25T09:14:09+02:00</time>
      </trkpt>
      <trkpt lat="45.37479" lon="4.54653">
        <ele>1256</ele>
        <time>2020-07-25T09:14:20+02:00</time>
      </trkpt>
      <trkpt lat="45.37489" lon="4.54708">
        <ele>1255</ele>
        <time>2020-07-25T09:14:29+02:00</time>
      </trkpt>
      <trkpt lat="45.37474" lon="4.54781">
        <ele>1255</ele>
        <time>2020-07-25T09:14:38+02:00</time>
      </trkpt>
      <trkpt lat="45.37455" lon="4.54827">
        <ele>1254</ele>
        <time>2020-07-25T09:14:46+02:00</time>
      </trkpt>
      <trkpt lat="45.37417" lon="4.54887">
        <ele>1253</ele>
      </trkpt>
      <trkpt lat="45.37384" lon="4.54947">
        <ele>1250</ele>
        <time>2020-07-25T09:15:04+02:00</time>
      </trkpt>
      <trkpt lat="45.37295" lon="4.55198">
        <ele>1246</ele>
        <time>2020-07-25T09:15:32+02:00</time>
      </trkpt>
      <trkpt lat="45.37295" lon="4.55245">
        <ele>1245</ele>
        <time>2020-07-25T09:15:37+02:00</time>
      </trkpt>
      <trkpt lat="45.37324" lon="4.55329">
        <ele>1246</ele>
        <time>2020-07-25T09:15:43+02:00</time>
      </trkpt>
      <trkpt lat="45.37353" lon="4.55369">
        <ele>1240</ele>
        <time>2020-07-25T09:16:03+02:00</time>
      </trkpt>
      <trkpt lat="45.37367" lon="4.55413">
        <ele>1237</ele>
        <time>2020-07-25T09:16:12+02:00</time>
      </trkpt>
      <trkpt lat="45.37357" lon="4.55457">
        <ele>1237</ele>
        <time>2020-07-25T09:16:18+02:00</time>
      </trkpt>
      <trkpt lat="45.37314" lon="4.55555">
        <ele>1245</ele>
        <time>2020-07-25T09:16:31+02:00</time>
      </trkpt>
      <trkpt lat="45.37312" lon="4.55583">
        <ele>1245</ele>
        <time>2020-07-25T09:16:35+02:00</time>
      </trkpt>
      <trkpt lat="45.37383" lon="4.55771">
        <ele>1245</ele>
        <time>2020-07-25T09:17:06+02:00</time>
      </trkpt>
      <trkpt lat="45.37395" lon="4.55839">
        <ele>1252</ele>
        <time>2020-07-25T09:17:15+02:00</time>
      </trkpt>
      <trkpt lat="45.37405" lon="4.55844">
        <ele>1251</ele>
        <time>2020-07-25T09:17:17+02:00</time>
      </trkpt>
      <trkpt lat="45.37419" lon="4.55835">
        <ele>1249</ele>
        <time>2020-07-25T09:17:20+02:00</time>
      </trkpt>
      <trkpt lat="45.37448" lon="4.5577">
        <ele>1249</ele>
        <time>2020-07-25T09:17:31+02:00</time>
      </trkpt>
      <trkpt lat="45.37477" lon="4.55723">
        <ele>1250</ele>
        <time>2020-07-25T09:17:40+02:00</time>
      </trkpt>
      <trkpt lat="45.37571" lon="4.5562">
        <ele>1251</ele>
        <time>2020-07-25T09:18:02+02:00</time>
      </trkpt>
      <trkpt lat="45.37605" lon="4.55574">
        <ele>1246</ele>
        <time>2020-07-25T09:18:11+02:00</time>
      </trkpt>
      <trkpt lat="45.37616" lon="4.55564">
        <ele>1245</ele>
        <time>2020-07-25T09:18:14+02:00</time>
      </trkpt>
      <trkpt lat="45.37634" lon="4.55563">
        <ele>1245</ele>
        <time>2020-07-25T09:18:18+02:00</time>
      </trkpt>
      <trkpt lat="45.37655" lon="4.55577">
        <ele>1246</ele>
        <time>2020-07-25T09:18:23+02:00</time>
      </trkpt>
      <trkpt lat="45.37732" lon="4.55668">
        <ele>1242</ele>
      </trkpt>
      <trkpt lat="45.3778" lon="4.55752">
        <ele>1242</ele>
        <time>2020-07-25T09:18:51+02:00</time>
      </trkpt>
      <trkpt lat="45.37945" lon="4.55833">
        <ele>1238</ele>
        <time>2020-07-25T09:20:04+02:00</time>
      </trkpt>
      <trkpt lat="45.38023" lon="4.55895">
        <ele>1235</ele>
        <time>2020-07-25T09:20:21+02:00</time>
      </trkpt>
      <trkpt lat="45.38096" lon="4.55912">
        <ele>1225</ele>
        <time>2020-07-25T09:20:41+02:00</time>
      </trkpt>
      <trkpt lat="45.38119" lon="4.55923">
        <ele>1226</ele>
        <time>2020-07-25T09:20:57+02:00</time>
      </trkpt>
      <trkpt lat="45.38137" lon="4.55923">
        <ele>1224</ele>
      </trkpt>
      <trkpt lat="45.38159" lon="4.55903">
        <ele>1214</ele>
        <time>2020-07-25T09:21:50+02:00</time>
      </trkpt>
      <trkpt lat="45.38238" lon="4.55906">
        <ele>1210</ele>
        <time>2020-07-25T09:22:00+02:00</time>
      </trkpt>
      <trkpt lat="45.38357" lon="4.55934">
        <ele>1204</ele>
        <time>2020-07-25T09:22:16+02:00</time>
      </trkpt>
      <trkpt lat="45.38413" lon="4.55967">
        <ele>1206</ele>
        <time>2020-07-25T09:22:25+02:00</time>
      </trkpt>
      <trkpt lat="45.38462" lon="4.56028">
        <ele>1203</ele>
        <time>2020-07-25T09:22:35+02:00</time>
      </trkpt>
      <trkpt lat="45.38504" lon="4.5611">
        <ele>1196</ele>
        <time>2020-07-25T09:22:44+02:00</time>
      </trkpt>
      <trkpt lat="45.3855" lon="4.56302">
        <ele>1196</ele>
        <time>2020-07-25T09:23:20+02:00</time>
      </trkpt>
      <trkpt lat="45.38565" lon="4.56336">
        <ele>1194</ele>
        <time>2020-07-25T09:23:25+02:00</time>
      </trkpt>
      <trkpt lat="45.38569" lon="4.56374">
        <ele>1202</ele>
        <time>2020-07-25T09:23:46+02:00</time>
      </trkpt>
      <trkpt lat="45.38637" lon="4.56361">
        <ele>1191</ele>
        <time>2020-07-25T09:24:01+02:00</time>
      </trkpt>
      <trkpt lat="45.38664" lon="4.56348">
        <ele>1186</ele>
      </trkpt>
      <trkpt lat="45.38697" lon="4.56326">
        <ele>1177</ele>
        <time>2020-07-25T09:24:09+02:00</time>
      </trkpt>
      <trkpt lat="45.3872" lon="4.56312">
        <ele>1173</ele>
        <time>2020-07-25T09:24:13+02:00</time>
      </trkpt>
      <trkpt lat="45.38734" lon="4.56316">
        <ele>1174</ele>
      </trkpt>
      <trkpt lat="45.38744" lon="4.56322">
        <ele>1176</ele>
      </trkpt>
      <trkpt lat="45.38761" lon="4.56342">
        <ele>1179</ele>
        <time>2020-07-25T09:24:17+02:00</time>
      </trkpt>
      <trkpt lat="45.38827" lon="4.56394">
        <ele>1177</ele>
        <time>2020-07-25T09:24:30+02:00</time>
      </trkpt>
      <trkpt lat="45.38859" lon="4.56428">
        <ele>1183</ele>
        <time>2020-07-25T09:24:37+02:00</time>
      </trkpt>
      <trkpt lat="45.38905" lon="4.56428">
        <ele>1184</ele>
        <time>2020-07-25T09:24:45+02:00</time>
      </trkpt>
      <trkpt lat="45.38948" lon="4.56405">
        <ele>1183</ele>
      </trkpt>
      <trkpt lat="45.38986" lon="4.56393">
        <ele>1187</ele>
        <time>2020-07-25T09:25:09+02:00</time>
      </trkpt>
      <trkpt lat="45.39035" lon="4.56387">
        <ele>1188</ele>
        <time>2020-07-25T09:25:22+02:00</time>
      </trkpt>
      <trkpt lat="45.39257" lon="4.56399">
        <ele>1198</ele>
        <time>2020-07-25T09:27:13+02:00</time>
      </trkpt>
      <trkpt lat="45.39309" lon="4.56421">
        <ele>1200</ele>
        <time>2020-07-25T09:27:34+02:00</time>
      </trkpt>
      <trkpt lat="45.39351" lon="4.56446">
        <ele>1196</ele>
        <time>2020-07-25T09:28:21+02:00</time>
      </trkpt>
      <trkpt lat="45.3936" lon="4.5646">
        <ele>1195</ele>
        <time>2020-07-25T09:28:26+02:00</time>
      </trkpt>
      <trkpt lat="45.3937" lon="4.56497">
        <ele>1195</ele>
        <time>2020-07-25T09:28:33+02:00</time>
      </trkpt>
      <trkpt lat="45.39366" lon="4.56571">
        <ele>1200</ele>
      </trkpt>
      <trkpt lat="45.39358" lon="4.56652">
        <ele>1202</ele>
        <time>2020-07-25T09:28:58+02:00</time>
      </trkpt>
      <trkpt lat="45.39337" lon="4.5671">
        <ele>1206</ele>
        <time>2020-07-25T09:29:12+02:00</time>
      </trkpt>
      <trkpt lat="45.39348" lon="4.56686">
        <ele>1205</ele>
        <time>2020-07-25T09:29:33+02:00</time>
      </trkpt>
      <trkpt lat="45.39322" lon="4.56741">
        <ele>1209</ele>
        <time>2020-07-25T09:30:41+02:00</time>
      </trkpt>
      <trkpt lat="45.39318" lon="4.56763">
        <ele>1212</ele>
        <time>2020-07-25T09:30:46+02:00</time>
      </trkpt>
      <trkpt lat="45.39329" lon="4.56778">
        <ele>1212</ele>
        <time>2020-07-25T09:30:51+02:00</time>
      </trkpt>
      <trkpt lat="45.39373" lon="4.56782">
        <ele>1213</ele>
        <time>2020-07-25T09:31:09+02:00</time>
      </trkpt>
      <trkpt lat="45.39401" lon="4.5678">
        <ele>1214</ele>
        <time>2020-07-25T09:31:21+02:00</time>
      </trkpt>
      <trkpt lat="45.39406" lon="4.56786">
        <ele>1215</ele>
        <time>2020-07-25T09:31:27+02:00</time>
      </trkpt>
      <trkpt lat="45.39397" lon="4.56795">
        <ele>1217</ele>
      </trkpt>
      <trkpt lat="45.39383" lon="4.56805">
        <ele>1219</ele>
      </trkpt>
      <trkpt lat="45.39368" lon="4.56818">
        <ele>1221</ele>
        <time>2020-07-25T09:32:28+02:00</time>
      </trkpt>
      <trkpt lat="45.39337" lon="4.56866">
        <ele>1229</ele>
        <time>2020-07-25T09:34:23+02:00</time>
      </trkpt>
      <trkpt lat="45.39294" lon="4.56915">
        <ele>1243</ele>
        <time>2020-07-25T09:35:46+02:00</time>
      </trkpt>
      <trkpt lat="45.39255" lon="4.56963">
        <ele>1255</ele>
        <time>2020-07-25T09:36:33+02:00</time>
      </trkpt>
      <trkpt lat="45.39261" lon="4.56999">
        <ele>1262</ele>
        <time>2020-07-25T09:37:20+02:00</time>
      </trkpt>
      <trkpt lat="45.39284" lon="4.57016">
        <ele>1264</ele>
        <time>2020-07-25T09:38:17+02:00</time>
      </trkpt>
      <trkpt lat="45.3932" lon="4.57028">
        <ele>1267</ele>
      </trkpt>
      <trkpt lat="45.3935" lon="4.5704">
        <ele>1272</ele>
        <time>2020-07-25T09:42:46+02:00</time>
      </trkpt>
      <trkpt lat="45.39379" lon="4.57031">
        <ele>1273</ele>
        <time>2020-07-25T09:43:03+02:00</time>
      </trkpt>
      <trkpt lat="45.39423" lon="4.57038">
        <ele>1279</ele>
        <time>2020-07-25T09:43:29+02:00</time>
      </trkpt>
      <trkpt lat="45.39472" lon="4.57027">
        <ele>1283</ele>
        <time>2020-07-25T09:43:51+02:00</time>
      </trkpt>
      <trkpt lat="45.39503" lon="4.57026">
        <ele>1287</ele>
        <time>2020-07-25T09:44:06+02:00</time>
      </trkpt>
      <trkpt lat="45.39519" lon="4.57034">
        <ele>1288</ele>
        <time>2020-07-25T09:44:14+02:00</time>
      </trkpt>
      <trkpt lat="45.39573" lon="4.57081">
        <ele>1291</ele>
        <time>2020-07-25T09:44:45+02:00</time>
      </trkpt>
      <trkpt lat="45.39567" lon="4.57093">
        <ele>1291</ele>
        <time>2020-07-25T09:44:49+02:00</time>
      </trkpt>
      <trkpt lat="45.39554" lon="4.57105">
        <ele>1292</ele>
      </trkpt>
      <trkpt lat="45.3954" lon="4.57114">
        <ele>1294</ele>
      </trkpt>
      <trkpt lat="45.39528" lon="4.57132">
        <ele>1295</ele>
      </trkpt>
      <trkpt lat="45.39517" lon="4.57149">
        <ele>1297</ele>
        <time>2020-07-25T09:45:31+02:00</time>
      </trkpt>
      <trkpt lat="45.3942" lon="4.57174">
        <ele>1299</ele>
        <time>2020-07-25T09:46:18+02:00</time>
      </trkpt>
      <trkpt lat="45.39339" lon="4.57233">
        <ele>1301</ele>
        <time>2020-07-25T09:47:23+02:00</time>
      </trkpt>
      <trkpt lat="45.39091" lon="4.57387">
        <ele>1309</ele>
        <time>2020-07-25T09:50:43+02:00</time>
      </trkpt>
      <trkpt lat="45.39156" lon="4.57395">
        <ele>1312</ele>
        <time>2020-07-25T09:51:06+02:00</time>
      </trkpt>
      <trkpt lat="45.39172" lon="4.57405">
        <ele>1313</ele>
        <time>2020-07-25T09:51:13+02:00</time>
      </trkpt>
      <trkpt lat="45.39187" lon="4.57418">
        <ele>1313</ele>
      </trkpt>
      <trkpt lat="45.39197" lon="4.5744">
        <ele>1314</ele>
        <time>2020-07-25T09:52:02+02:00</time>
      </trkpt>
      <trkpt lat="45.3921" lon="4.57496">
        <ele>1315</ele>
        <time>2020-07-25T09:52:17+02:00</time>
      </trkpt>
      <trkpt lat="45.39209" lon="4.57513">
        <ele>1316</ele>
      </trkpt>
      <trkpt lat="45.392" lon="4.57521">
        <ele>1318</ele>
        <time>2020-07-25T09:52:24+02:00</time>
      </trkpt>
      <trkpt lat="45.39171" lon="4.57514">
        <ele>1321</ele>
        <time>2020-07-25T09:52:39+02:00</time>
      </trkpt>
      <trkpt lat="45.39134" lon="4.57525">
        <ele>1324</ele>
        <time>2020-07-25T09:53:30+02:00</time>
      </trkpt>
      <trkpt lat="45.39154" lon="4.57556">
        <ele>1326</ele>
        <time>2020-07-25T09:53:41+02:00</time>
      </trkpt>
      <trkpt lat="45.39158" lon="4.57583">
        <ele>1329</ele>
      </trkpt>
      <trkpt lat="45.39172" lon="4.57614">
        <ele>1330</ele>
        <time>2020-07-25T09:53:57+02:00</time>
      </trkpt>
      <trkpt lat="45.39183" lon="4.57655">
        <ele>1332</ele>
      </trkpt>
      <trkpt lat="45.39207" lon="4.57782">
        <ele>1332</ele>
        <time>2020-07-25T09:54:33+02:00</time>
      </trkpt>
      <trkpt lat="45.39203" lon="4.57829">
        <ele>1332</ele>
      </trkpt>
      <trkpt lat="45.39196" lon="4.57865">
        <ele>1334</ele>
        <time>2020-07-25T09:54:50+02:00</time>
      </trkpt>
      <trkpt lat="45.39164" lon="4.57934">
        <ele>1341</ele>
      </trkpt>
      <trkpt lat="45.39144" lon="4.5799">
        <ele>1345</ele>
        <time>2020-07-25T09:55:42+02:00</time>
      </trkpt>
      <trkpt lat="45.39127" lon="4.58017">
        <ele>1348</ele>
        <time>2020-07-25T09:55:55+02:00</time>
      </trkpt>
      <trkpt lat="45.39078" lon="4.5807">
        <ele>1353</ele>
        <time>2020-07-25T09:56:54+02:00</time>
      </trkpt>
      <trkpt lat="45.39005" lon="4.58128">
        <ele>1360</ele>
        <time>2020-07-25T09:57:31+02:00</time>
      </trkpt>
      <trkpt lat="45.38926" lon="4.58159">
        <ele>1366</ele>
        <time>2020-07-25T09:58:03+02:00</time>
      </trkpt>
      <trkpt lat="45.38875" lon="4.58164">
        <ele>1368</ele>
        <time>2020-07-25T09:58:25+02:00</time>
      </trkpt>
      <trkpt lat="45.38823" lon="4.58154">
        <ele>1369</ele>
      </trkpt>
      <trkpt lat="45.38784" lon="4.58152">
        <ele>1369</ele>
        <time>2020-07-25T09:58:58+02:00</time>
      </trkpt>
      <trkpt lat="45.3873" lon="4.5816">
        <ele>1370</ele>
        <time>2020-07-25T09:59:12+02:00</time>
      </trkpt>
      <trkpt lat="45.3871" lon="4.58169">
        <ele>1370</ele>
        <time>2020-07-25T09:59:24+02:00</time>
      </trkpt>
      <trkpt lat="45.38601" lon="4.58258">
        <ele>1372</ele>
        <time>2020-07-25T10:01:24+02:00</time>
      </trkpt>
      <trkpt lat="45.3858" lon="4.58264">
        <ele>1374</ele>
        <time>2020-07-25T10:01:34+02:00</time>
      </trkpt>
      <trkpt lat="45.38513" lon="4.58314">
        <ele>1374</ele>
        <time>2020-07-25T10:01:50+02:00</time>
      </trkpt>
      <trkpt lat="45.38473" lon="4.58365">
        <ele>1373</ele>
        <time>2020-07-25T10:02:02+02:00</time>
      </trkpt>
      <trkpt lat="45.38437" lon="4.58441">
        <ele>1371</ele>
        <time>2020-07-25T10:02:13+02:00</time>
      </trkpt>
      <trkpt lat="45.38429" lon="4.58478">
        <ele>1369</ele>
      </trkpt>
      <trkpt lat="45.38428" lon="4.58512">
        <ele>1368</ele>
        <time>2020-07-25T10:05:21+02:00</time>
      </trkpt>
      <trkpt lat="45.38442" lon="4.5855">
        <ele>1366</ele>
        <time>2020-07-25T10:05:54+02:00</time>
      </trkpt>
      <trkpt lat="45.38457" lon="4.58637">
        <ele>1363</ele>
        <time>2020-07-25T10:06:13+02:00</time>
      </trkpt>
      <trkpt lat="45.38446" lon="4.58707">
        <ele>1364</ele>
        <time>2020-07-25T10:10:54+02:00</time>
      </trkpt>
      <trkpt lat="45.38458" lon="4.5872">
        <ele>1364</ele>
        <time>2020-07-25T10:10:59+02:00</time>
      </trkpt>
      <trkpt lat="45.3848" lon="4.5874">
        <ele>1365</ele>
        <time>2020-07-25T10:11:11+02:00</time>
      </trkpt>
      <trkpt lat="45.385" lon="4.58777">
        <ele>1368</ele>
        <time>2020-07-25T10:11:24+02:00</time>
      </trkpt>
      <trkpt lat="45.38541" lon="4.58925">
        <ele>1376</ele>
        <time>2020-07-25T10:12:19+02:00</time>
      </trkpt>
      <trkpt lat="45.38556" lon="4.58964">
        <ele>1378</ele>
        <time>2020-07-25T10:12:51+02:00</time>
      </trkpt>
      <trkpt lat="45.38593" lon="4.59116">
        <ele>1382</ele>
        <time>2020-07-25T10:13:19+02:00</time>
      </trkpt>
      <trkpt lat="45.38617" lon="4.59172">
        <ele>1380</ele>
        <time>2020-07-25T10:13:30+02:00</time>
      </trkpt>
      <trkpt lat="45.38649" lon="4.59221">
        <ele>1379</ele>
      </trkpt>
      <trkpt lat="45.38667" lon="4.59265">
        <ele>1378</ele>
        <time>2020-07-25T10:14:22+02:00</time>
      </trkpt>
      <trkpt lat="45.38666" lon="4.59292">
        <ele>1378</ele>
      </trkpt>
      <trkpt lat="45.38659" lon="4.59337">
        <ele>1376</ele>
        <time>2020-07-25T10:14:56+02:00</time>
      </trkpt>
      <trkpt lat="45.3866" lon="4.59351">
        <ele>1376</ele>
      </trkpt>
      <trkpt lat="45.38666" lon="4.59361">
        <ele>1376</ele>
        <time>2020-07-25T10:15:05+02:00</time>
      </trkpt>
      <trkpt lat="45.38698" lon="4.59381">
        <ele>1373</ele>
        <time>2020-07-25T10:15:36+02:00</time>
      </trkpt>
      <trkpt lat="45.38748" lon="4.59386">
        <ele>1371</ele>
        <time>2020-07-25T10:15:48+02:00</time>
      </trkpt>
      <trkpt lat="45.38774" lon="4.59402">
        <ele>1367</ele>
        <time>2020-07-25T10:15:54+02:00</time>
      </trkpt>
      <trkpt lat="45.38796" lon="4.59421">
        <ele>1364</ele>
        <time>2020-07-25T10:15:59+02:00</time>
      </trkpt>
      <trkpt lat="45.38812" lon="4.59445">
        <ele>1362</ele>
      </trkpt>
      <trkpt lat="45.38825" lon="4.59474">
        <ele>1362</ele>
        <time>2020-07-25T10:16:08+02:00</time>
      </trkpt>
      <trkpt lat="45.3883" lon="4.59539">
        <ele>1362</ele>
      </trkpt>
      <trkpt lat="45.38844" lon="4.5963">
        <ele>1355</ele>
        <time>2020-07-25T10:16:32+02:00</time>
      </trkpt>
      <trkpt lat="45.38851" lon="4.59714">
        <ele>1351</ele>
      </trkpt>
      <trkpt lat="45.38846" lon="4.59826">
        <ele>1346</ele>
        <time>2020-07-25T10:17:04+02:00</time>
      </trkpt>
      <trkpt lat="45.38855" lon="4.59872">
        <ele>1342</ele>
        <time>2020-07-25T10:17:16+02:00</time>
      </trkpt>
      <trkpt lat="45.38906" lon="4.59945">
        <ele>1344</ele>
        <time>2020-07-25T10:18:40+02:00</time>
      </trkpt>
      <trkpt lat="45.39034" lon="4.6009">
        <ele>1351</ele>
        <time>2020-07-25T10:19:52+02:00</time>
      </trkpt>
      <trkpt lat="45.39062" lon="4.60157">
        <ele>1354</ele>
        <time>2020-07-25T10:20:20+02:00</time>
      </trkpt>
      <trkpt lat="45.39074" lon="4.60252">
        <ele>1359</ele>
        <time>2020-07-25T10:20:51+02:00</time>
      </trkpt>
      <trkpt lat="45.3906" lon="4.6035">
        <ele>1358</ele>
        <time>2020-07-25T10:21:19+02:00</time>
      </trkpt>
      <trkpt lat="45.39032" lon="4.60449">
        <ele>1358</ele>
        <time>2020-07-25T10:22:35+02:00</time>
      </trkpt>
      <trkpt lat="45.39025" lon="4.60518">
        <ele>1353</ele>
      </trkpt>
      <trkpt lat="45.39026" lon="4.60579">
        <ele>1345</ele>
        <time>2020-07-25T10:22:59+02:00</time>
      </trkpt>
      <trkpt lat="45.39038" lon="4.60647">
        <ele>1335</ele>
      </trkpt>
      <trkpt lat="45.3905" lon="4.60694">
        <ele>1328</ele>
        <time>2020-07-25T10:23:30+02:00</time>
      </trkpt>
      <trkpt lat="45.39102" lon="4.60781">
        <ele>1320</ele>
        <time>2020-07-25T10:24:49+02:00</time>
      </trkpt>
      <trkpt lat="45.39095" lon="4.60794">
        <ele>1319</ele>
        <time>2020-07-25T10:24:52+02:00</time>
      </trkpt>
      <trkpt lat="45.391" lon="4.60811">
        <ele>1319</ele>
        <time>2020-07-25T10:25:03+02:00</time>
      </trkpt>
      <trkpt lat="45.391" lon="4.60848">
        <ele>1318</ele>
        <time>2020-07-25T10:25:14+02:00</time>
      </trkpt>
      <trkpt lat="45.39093" lon="4.60873">
        <ele>1316</ele>
        <time>2020-07-25T10:26:07+02:00</time>
      </trkpt>
      <trkpt lat="45.39094" lon="4.60904">
        <ele>1315</ele>
      </trkpt>
      <trkpt lat="45.3909" lon="4.60941">
        <ele>1313</ele>
        <time>2020-07-25T10:26:39+02:00</time>
      </trkpt>
      <trkpt lat="45.39059" lon="4.61078">
        <ele>1298</ele>
        <time>2020-07-25T10:27:05+02:00</time>
      </trkpt>
      <trkpt lat="45.39041" lon="4.61125">
        <ele>1291</ele>
        <time>2020-07-25T10:28:03+02:00</time>
      </trkpt>
      <trkpt lat="45.39018" lon="4.61163">
        <ele>1281</ele>
      </trkpt>
      <trkpt lat="45.39" lon="4.61206">
        <ele>1274</ele>
        <time>2020-07-25T10:28:45+02:00</time>
      </trkpt>
      <trkpt lat="45.38979" lon="4.61372">
        <ele>1265</ele>
        <time>2020-07-25T10:29:13+02:00</time>
      </trkpt>
      <trkpt lat="45.38955" lon="4.6143">
        <ele>1255</ele>
        <time>2020-07-25T10:29:21+02:00</time>
      </trkpt>
      <trkpt lat="45.38933" lon="4.61511">
        <ele>1244</ele>
        <time>2020-07-25T10:29:39+02:00</time>
      </trkpt>
      <trkpt lat="45.3891" lon="4.61539">
        <ele>1239</ele>
      </trkpt>
      <trkpt lat="45.3889" lon="4.61553">
        <ele>1237</ele>
        <time>2020-07-25T10:29:54+02:00</time>
      </trkpt>
      <trkpt lat="45.38883" lon="4.6156">
        <ele>1237</ele>
        <time>2020-07-25T10:30:00+02:00</time>
      </trkpt>
      <trkpt lat="45.38866" lon="4.61577">
        <ele>1236</ele>
        <time>2020-07-25T10:32:04+02:00</time>
      </trkpt>
      <trkpt lat="45.38852" lon="4.6157">
        <ele>1236</ele>
      </trkpt>
      <trkpt lat="45.38843" lon="4.61551">
        <ele>1236</ele>
        <time>2020-07-25T10:32:09+02:00</time>
      </trkpt>
      <trkpt lat="45.38837" lon="4.61512">
        <ele>1235</ele>
        <time>2020-07-25T10:32:18+02:00</time>
      </trkpt>
      <trkpt lat="45.38818" lon="4.61515">
        <ele>1233</ele>
        <time>2020-07-25T10:32:26+02:00</time>
      </trkpt>
      <trkpt lat="45.38786" lon="4.61443">
        <ele>1224</ele>
        <time>2020-07-25T10:32:36+02:00</time>
      </trkpt>
      <trkpt lat="45.38761" lon="4.61463">
        <ele>1222</ele>
      </trkpt>
      <trkpt lat="45.38685" lon="4.61502">
        <ele>1218</ele>
        <time>2020-07-25T10:33:50+02:00</time>
      </trkpt>
      <trkpt lat="45.38624" lon="4.6151">
        <ele>1213</ele>
        <time>2020-07-25T10:33:57+02:00</time>
      </trkpt>
      <trkpt lat="45.38576" lon="4.61523">
        <ele>1210</ele>
      </trkpt>
      <trkpt lat="45.38535" lon="4.61539">
        <ele>1207</ele>
        <time>2020-07-25T10:34:09+02:00</time>
      </trkpt>
      <trkpt lat="45.38507" lon="4.61527">
        <ele>1204</ele>
        <time>2020-07-25T10:34:16+02:00</time>
      </trkpt>
      <trkpt lat="45.38496" lon="4.61522">
        <ele>1204</ele>
      </trkpt>
      <trkpt lat="45.38489" lon="4.61516">
        <ele>1203</ele>
        <time>2020-07-25T10:35:16+02:00</time>
      </trkpt>
      <trkpt lat="45.38485" lon="4.6151">
        <ele>1203</ele>
        <time>2020-07-25T10:35:21+02:00</time>
      </trkpt>
      <trkpt lat="45.38485" lon="4.61505">
        <ele>1204</ele>
      </trkpt>
      <trkpt lat="45.38486" lon="4.61495">
        <ele>1203</ele>
      </trkpt>
      <trkpt lat="45.3849" lon="4.61481">
        <ele>1202</ele>
        <time>2020-07-25T10:35:31+02:00</time>
      </trkpt>
      <trkpt lat="45.38475" lon="4.61433">
        <ele>1197</ele>
        <time>2020-07-25T10:36:02+02:00</time>
      </trkpt>
      <trkpt lat="45.38445" lon="4.61406">
        <ele>1194</ele>
      </trkpt>
      <trkpt lat="45.38434" lon="4.61361">
        <ele>1187</ele>
        <time>2020-07-25T10:36:17+02:00</time>
      </trkpt>
      <trkpt lat="45.38409" lon="4.61322">
        <ele>1180</ele>
        <time>2020-07-25T10:36:31+02:00</time>
      </trkpt>
      <trkpt lat="45.38403" lon="4.61304">
        <ele>1177</ele>
      </trkpt>
      <trkpt lat="45.3839" lon="4.61291">
        <ele>1175</ele>
        <time>2020-07-25T10:36:35+02:00</time>
      </trkpt>
      <trkpt lat="45.38366" lon="4.61186">
        <ele>1158</ele>
        <time>2020-07-25T10:36:53+02:00</time>
      </trkpt>
      <trkpt lat="45.38363" lon="4.61139">
        <ele>1152</ele>
      </trkpt>
      <trkpt lat="45.38357" lon="4.61064">
        <ele>1147</ele>
        <time>2020-07-25T10:37:07+02:00</time>
      </trkpt>
      <trkpt lat="45.38347" lon="4.61052">
        <ele>1146</ele>
      </trkpt>
      <trkpt lat="45.38329" lon="4.61044">
        <ele>1143</ele>
      </trkpt>
      <trkpt lat="45.38311" lon="4.6102">
        <ele>1140</ele>
        <time>2020-07-25T10:37:21+02:00</time>
      </trkpt>
      <trkpt lat="45.38304" lon="4.61017">
        <ele>1139</ele>
        <time>2020-07-25T10:37:24+02:00</time>
      </trkpt>
      <trkpt lat="45.38285" lon="4.61038">
        <ele>1139</ele>
        <time>2020-07-25T10:37:32+02:00</time>
      </trkpt>
      <trkpt lat="45.38256" lon="4.61051">
        <ele>1137</ele>
        <time>2020-07-25T10:37:39+02:00</time>
      </trkpt>
      <trkpt lat="45.38133" lon="4.61062">
        <ele>1133</ele>
        <time>2020-07-25T10:37:59+02:00</time>
      </trkpt>
      <trkpt lat="45.38042" lon="4.61058">
        <ele>1131</ele>
        <time>2020-07-25T10:38:10+02:00</time>
      </trkpt>
      <trkpt lat="45.37946" lon="4.61037">
        <ele>1132</ele>
      </trkpt>
      <trkpt lat="45.37936" lon="4.61042">
        <ele>1134</ele>
      </trkpt>
      <trkpt lat="45.37898" lon="4.61037">
        <ele>1139</ele>
        <time>2020-07-25T10:39:10+02:00</time>
      </trkpt>
      <trkpt lat="45.37862" lon="4.61039">
        <ele>1146</ele>
        <time>2020-07-25T10:39:24+02:00</time>
      </trkpt>
      <trkpt lat="45.37795" lon="4.61014">
        <ele>1154</ele>
        <time>2020-07-25T10:39:47+02:00</time>
      </trkpt>
      <trkpt lat="45.37774" lon="4.61005">
        <ele>1156</ele>
        <time>2020-07-25T10:40:46+02:00</time>
      </trkpt>
      <trkpt lat="45.37732" lon="4.6097">
        <ele>1158</ele>
      </trkpt>
      <trkpt lat="45.37715" lon="4.60952">
        <ele>1158</ele>
        <time>2020-07-25T10:41:18+02:00</time>
      </trkpt>
      <trkpt lat="45.37688" lon="4.60936">
        <ele>1160</ele>
        <time>2020-07-25T10:41:31+02:00</time>
      </trkpt>
      <trkpt lat="45.37603" lon="4.60864">
        <ele>1164</ele>
      </trkpt>
      <trkpt lat="45.37572" lon="4.60832">
        <ele>1163</ele>
        <time>2020-07-25T10:42:37+02:00</time>
      </trkpt>
      <trkpt lat="45.37527" lon="4.60799">
        <ele>1161</ele>
        <time>2020-07-25T10:42:49+02:00</time>
      </trkpt>
      <trkpt lat="45.37503" lon="4.6079">
        <ele>1162</ele>
        <time>2020-07-25T10:42:56+02:00</time>
      </trkpt>
      <trkpt lat="45.37443" lon="4.60745">
        <ele>1158</ele>
        <time>2020-07-25T10:43:16+02:00</time>
      </trkpt>
      <trkpt lat="45.37389" lon="4.60708">
        <ele>1154</ele>
        <time>2020-07-25T10:43:23+02:00</time>
      </trkpt>
      <trkpt lat="45.37341" lon="4.60695">
        <ele>1154</ele>
      </trkpt>
      <trkpt lat="45.37292" lon="4.60694">
        <ele>1153</ele>
        <time>2020-07-25T10:43:49+02:00</time>
      </trkpt>
      <trkpt lat="45.37254" lon="4.60699">
        <ele>1153</ele>
        <time>2020-07-25T10:43:59+02:00</time>
      </trkpt>
      <trkpt lat="45.37229" lon="4.60709">
        <ele>1151</ele>
        <time>2020-07-25T10:44:03+02:00</time>
      </trkpt>
      <trkpt lat="45.37209" lon="4.60724">
        <ele>1150</ele>
      </trkpt>
      <trkpt lat="45.37184" lon="4.60747">
        <ele>1149</ele>
        <time>2020-07-25T10:44:28+02:00</time>
      </trkpt>
      <trkpt lat="45.37127" lon="4.60823">
        <ele>1142</ele>
        <time>2020-07-25T10:44:37+02:00</time>
      </trkpt>
      <trkpt lat="45.37085" lon="4.60879">
        <ele>1134</ele>
        <time>2020-07-25T10:44:48+02:00</time>
      </trkpt>
      <trkpt lat="45.3706" lon="4.60917">
        <ele>1129</ele>
        <time>2020-07-25T10:44:58+02:00</time>
      </trkpt>
      <trkpt lat="45.37039" lon="4.60971">
        <ele>1122</ele>
        <time>2020-07-25T10:45:10+02:00</time>
      </trkpt>
      <trkpt lat="45.37021" lon="4.60996">
        <ele>1116</ele>
        <time>2020-07-25T10:45:14+02:00</time>
      </trkpt>
      <trkpt lat="45.36998" lon="4.61029">
        <ele>1106</ele>
      </trkpt>
      <trkpt lat="45.3699" lon="4.61032">
        <ele>1104</ele>
        <time>2020-07-25T10:45:19+02:00</time>
      </trkpt>
      <trkpt lat="45.36964" lon="4.61001">
        <ele>1098</ele>
        <time>2020-07-25T10:45:27+02:00</time>
      </trkpt>
      <trkpt lat="45.36923" lon="4.60983">
        <ele>1086</ele>
      </trkpt>
      <trkpt lat="45.36878" lon="4.60971">
        <ele>1077</ele>
        <time>2020-07-25T10:46:42+02:00</time>
      </trkpt>
      <trkpt lat="45.3689" lon="4.61028">
        <ele>1076</ele>
      </trkpt>
      <trkpt lat="45.36911" lon="4.61096">
        <ele>1074</ele>
        <time>2020-07-25T10:48:20+02:00</time>
      </trkpt>
      <trkpt lat="45.36914" lon="4.61133">
        <ele>1071</ele>
      </trkpt>
      <trkpt lat="45.36919" lon="4.61182">
        <ele>1068</ele>
        <time>2020-07-25T10:48:28+02:00</time>
      </trkpt>
      <trkpt lat="45.36933" lon="4.61211">
        <ele>1069</ele>
      </trkpt>
      <trkpt lat="45.36947" lon="4.61262">
        <ele>1067</ele>
        <time>2020-07-25T10:48:41+02:00</time>
      </trkpt>
      <trkpt lat="45.36946" lon="4.61349">
        <ele>1061</ele>
      </trkpt>
      <trkpt lat="45.36951" lon="4.6145">
        <ele>1061</ele>
      </trkpt>
      <trkpt lat="45.36951" lon="4.61505">
        <ele>1059</ele>
      </trkpt>
      <trkpt lat="45.36954" lon="4.61607">
        <ele>1060</ele>
        <time>2020-07-25T10:52:05+02:00</time>
      </trkpt>
      <trkpt lat="45.36932" lon="4.6162">
        <ele>1058</ele>
        <time>2020-07-25T10:52:28+02:00</time>
      </trkpt>
      <trkpt lat="45.36886" lon="4.61667">
        <ele>1060</ele>
        <time>2020-07-25T10:52:43+02:00</time>
      </trkpt>
      <trkpt lat="45.36874" lon="4.61667">
        <ele>1061</ele>
      </trkpt>
      <trkpt lat="45.36862" lon="4.61652">
        <ele>1060</ele>
        <time>2020-07-25T10:52:52+02:00</time>
      </trkpt>
      <trkpt lat="45.36815" lon="4.61632">
        <ele>1060</ele>
        <time>2020-07-25T10:53:50+02:00</time>
      </trkpt>
      <trkpt lat="45.36798" lon="4.6163">
        <ele>1061</ele>
        <time>2020-07-25T10:54:05+02:00</time>
      </trkpt>
      <trkpt lat="45.36747" lon="4.61609">
        <ele>1061</ele>
      </trkpt>
      <trkpt lat="45.36689" lon="4.61602">
        <ele>1063</ele>
      </trkpt>
      <trkpt lat="45.36643" lon="4.61605">
        <ele>1065</ele>
        <time>2020-07-25T10:54:29+02:00</time>
      </trkpt>
      <trkpt lat="45.36606" lon="4.61579">
        <ele>1063</ele>
        <time>2020-07-25T10:54:40+02:00</time>
      </trkpt>
      <trkpt lat="45.36577" lon="4.61566">
        <ele>1063</ele>
      </trkpt>
      <trkpt lat="45.36478" lon="4.61549">
        <ele>1067</ele>
        <time>2020-07-25T10:55:11+02:00</time>
      </trkpt>
      <trkpt lat="45.36447" lon="4.61544">
        <ele>1069</ele>
        <time>2020-07-25T10:55:35+02:00</time>
      </trkpt>
      <trkpt lat="45.36413" lon="4.61536">
        <ele>1071</ele>
      </trkpt>
      <trkpt lat="45.36334" lon="4.61523">
        <ele>1079</ele>
        <time>2020-07-25T10:56:07+02:00</time>
      </trkpt>
      <trkpt lat="45.36316" lon="4.61522">
        <ele>1078</ele>
      </trkpt>
      <trkpt lat="45.36293" lon="4.61529">
        <ele>1079</ele>
        <time>2020-07-25T10:56:22+02:00</time>
      </trkpt>
      <trkpt lat="45.36259" lon="4.61558">
        <ele>1084</ele>
        <time>2020-07-25T10:56:41+02:00</time>
      </trkpt>
      <trkpt lat="45.36109" lon="4.61711">
        <ele>1077</ele>
        <time>2020-07-25T10:57:19+02:00</time>
      </trkpt>
      <trkpt lat="45.3608" lon="4.61721">
        <ele>1075</ele>
        <time>2020-07-25T10:57:25+02:00</time>
      </trkpt>
      <trkpt lat="45.36021" lon="4.61759">
        <ele>1073</ele>
        <time>2020-07-25T10:57:40+02:00</time>
      </trkpt>
      <trkpt lat="45.35994" lon="4.61781">
        <ele>1071</ele>
      </trkpt>
      <trkpt lat="45.35953" lon="4.618">
        <ele>1066</ele>
        <time>2020-07-25T10:57:49+02:00</time>
      </trkpt>
      <trkpt lat="45.3594" lon="4.61805">
        <ele>1065</ele>
        <time>2020-07-25T10:57:51+02:00</time>
      </trkpt>
      <trkpt lat="45.35928" lon="4.61829">
        <ele>1063</ele>
        <time>2020-07-25T10:58:35+02:00</time>
      </trkpt>
      <trkpt lat="45.35892" lon="4.61996">
        <ele>1037</ele>
        <time>2020-07-25T10:58:55+02:00</time>
      </trkpt>
      <trkpt lat="45.35884" lon="4.62043">
        <ele>1030</ele>
      </trkpt>
      <trkpt lat="45.35884" lon="4.62096">
        <ele>1023</ele>
        <time>2020-07-25T10:59:19+02:00</time>
      </trkpt>
      <trkpt lat="45.35868" lon="4.62164">
        <ele>1010</ele>
        <time>2020-07-25T10:59:35+02:00</time>
      </trkpt>
      <trkpt lat="45.35872" lon="4.62219">
        <ele>1001</ele>
        <time>2020-07-25T10:59:50+02:00</time>
      </trkpt>
      <trkpt lat="45.35868" lon="4.62268">
        <ele>991</ele>
        <time>2020-07-25T11:00:01+02:00</time>
      </trkpt>
      <trkpt lat="45.35871" lon="4.62285">
        <ele>987</ele>
        <time>2020-07-25T11:00:08+02:00</time>
      </trkpt>
      <trkpt lat="45.35908" lon="4.62325">
        <ele>980</ele>
        <time>2020-07-25T11:00:23+02:00</time>
      </trkpt>
      <trkpt lat="45.35928" lon="4.62332">
        <ele>977</ele>
      </trkpt>
      <trkpt lat="45.35969" lon="4.62353">
        <ele>970</ele>
        <time>2020-07-25T11:00:42+02:00</time>
      </trkpt>
      <trkpt lat="45.35971" lon="4.62358">
        <ele>969</ele>
        <time>2020-07-25T11:00:44+02:00</time>
      </trkpt>
      <trkpt lat="45.35959" lon="4.62375">
        <ele>966</ele>
        <time>2020-07-25T11:02:34+02:00</time>
      </trkpt>
      <trkpt lat="45.35935" lon="4.62394">
        <ele>963</ele>
      </trkpt>
      <trkpt lat="45.35902" lon="4.62404">
        <ele>960</ele>
        <time>2020-07-25T11:02:51+02:00</time>
      </trkpt>
      <trkpt lat="45.35831" lon="4.62426">
        <ele>953</ele>
        <time>2020-07-25T11:03:04+02:00</time>
      </trkpt>
      <trkpt lat="45.35773" lon="4.62441">
        <ele>947</ele>
        <time>2020-07-25T11:03:13+02:00</time>
      </trkpt>
      <trkpt lat="45.35735" lon="4.6244">
        <ele>945</ele>
        <time>2020-07-25T11:03:20+02:00</time>
      </trkpt>
      <trkpt lat="45.35727" lon="4.62447">
        <ele>944</ele>
      </trkpt>
      <trkpt lat="45.35724" lon="4.62471">
        <ele>942</ele>
      </trkpt>
      <trkpt lat="45.35712" lon="4.62508">
        <ele>939</ele>
        <time>2020-07-25T11:03:36+02:00</time>
      </trkpt>
      <trkpt lat="45.35635" lon="4.6246">
        <ele>937</ele>
        <time>2020-07-25T11:05:10+02:00</time>
      </trkpt>
      <trkpt lat="45.35606" lon="4.62456">
        <ele>934</ele>
        <time>2020-07-25T11:05:15+02:00</time>
      </trkpt>
      <trkpt lat="45.35572" lon="4.62461">
        <ele>932</ele>
        <time>2020-07-25T11:05:21+02:00</time>
      </trkpt>
      <trkpt lat="45.35518" lon="4.62435">
        <ele>924</ele>
        <time>2020-07-25T11:05:33+02:00</time>
      </trkpt>
      <trkpt lat="45.35457" lon="4.62448">
        <ele>917</ele>
        <time>2020-07-25T11:05:44+02:00</time>
      </trkpt>
      <trkpt lat="45.35443" lon="4.62432">
        <ele>913</ele>
      </trkpt>
      <trkpt lat="45.35427" lon="4.62417">
        <ele>909</ele>
        <time>2020-07-25T11:05:55+02:00</time>
      </trkpt>
      <trkpt lat="45.35417" lon="4.62417">
        <ele>907</ele>
        <time>2020-07-25T11:05:57+02:00</time>
      </trkpt>
      <trkpt lat="45.35395" lon="4.62437">
        <ele>906</ele>
        <time>2020-07-25T11:06:12+02:00</time>
      </trkpt>
      <trkpt lat="45.35394" lon="4.62418">
        <ele>904</ele>
      </trkpt>
      <trkpt lat="45.354" lon="4.62387">
        <ele>903</ele>
      </trkpt>
      <trkpt lat="45.35398" lon="4.62365">
        <ele>902</ele>
        <time>2020-07-25T11:06:32+02:00</time>
      </trkpt>
      <trkpt lat="45.354" lon="4.62346">
        <ele>901</ele>
      </trkpt>
      <trkpt lat="45.35392" lon="4.62243">
        <ele>899</ele>
        <time>2020-07-25T11:06:44+02:00</time>
      </trkpt>
      <trkpt lat="45.35276" lon="4.62106">
        <ele>887</ele>
        <time>2020-07-25T11:06:59+02:00</time>
      </trkpt>
      <trkpt lat="45.35251" lon="4.6204">
        <ele>886</ele>
        <time>2020-07-25T11:07:07+02:00</time>
      </trkpt>
      <trkpt lat="45.35221" lon="4.6199">
        <ele>880</ele>
        <time>2020-07-25T11:07:41+02:00</time>
      </trkpt>
      <trkpt lat="45.35199" lon="4.61912">
        <ele>874</ele>
        <time>2020-07-25T11:08:14+02:00</time>
      </trkpt>
      <trkpt lat="45.35188" lon="4.61818">
        <ele>870</ele>
        <time>2020-07-25T11:08:21+02:00</time>
      </trkpt>
      <trkpt lat="45.35143" lon="4.61698">
        <ele>859</ele>
        <time>2020-07-25T11:08:36+02:00</time>
      </trkpt>
      <trkpt lat="45.35098" lon="4.6177">
        <ele>850</ele>
        <time>2020-07-25T11:09:20+02:00</time>
      </trkpt>
      <trkpt lat="45.35087" lon="4.61795">
        <ele>844.7</ele>
      </trkpt>
      <trkpt lat="45.35071" lon="4.6181">
        <ele>842.5</ele>
      </trkpt>
      <trkpt lat="45.35045" lon="4.61869">
        <ele>839.8</ele>
      </trkpt>
      <trkpt lat="45.35037" lon="4.61925">
        <ele>839.7</ele>
      </trkpt>
      <trkpt lat="45.34993" lon="4.6207">
        <ele>838.4</ele>
      </trkpt>
      <trkpt lat="45.34972" lon="4.62094">
        <ele>836</ele>
      </trkpt>
      <trkpt lat="45.34924" lon="4.62121">
        <ele>834.7</ele>
      </trkpt>
      <trkpt lat="45.34923" lon="4.62069">
        <ele>832.7</ele>
      </trkpt>
      <trkpt lat="45.34916" lon="4.62023">
        <ele>829.8</ele>
      </trkpt>
      <trkpt lat="45.34905" lon="4.61979">
        <ele>828.6</ele>
      </trkpt>
      <trkpt lat="45.34892" lon="4.61954">
        <ele>828.1</ele>
      </trkpt>
      <trkpt lat="45.34877" lon="4.61901">
        <ele>827.8</ele>
      </trkpt>
      <trkpt lat="45.34861" lon="4.61861">
        <ele>829</ele>
      </trkpt>
      <trkpt lat="45.34836" lon="4.61939">
        <ele>827.2</ele>
      </trkpt>
      <trkpt lat="45.34759" lon="4.62116">
        <ele>821.6</ele>
      </trkpt>
      <trkpt lat="45.34739" lon="4.62178">
        <ele>819.4</ele>
      </trkpt>
      <trkpt lat="45.34742" lon="4.62213">
        <ele>816.6</ele>
      </trkpt>
      <trkpt lat="45.34606" lon="4.62253">
        <ele>808.7</ele>
      </trkpt>
      <trkpt lat="45.34579" lon="4.62249">
        <ele>807.9</ele>
      </trkpt>
      <trkpt lat="45.34488" lon="4.62243">
        <ele>805.4</ele>
      </trkpt>
      <trkpt lat="45.34467" lon="4.62236">
        <ele>806.1</ele>
      </trkpt>
      <trkpt lat="45.34408" lon="4.62239">
        <ele>804.1</ele>
      </trkpt>
      <trkpt lat="45.34389" lon="4.62229">
        <ele>805.2</ele>
      </trkpt>
      <trkpt lat="45.34352" lon="4.62208">
        <ele>804.5</ele>
      </trkpt>
      <trkpt lat="45.34293" lon="4.62187">
        <ele>804</ele>
      </trkpt>
      <trkpt lat="45.34259" lon="4.62165">
        <ele>805.4</ele>
      </trkpt>
      <trkpt lat="45.34236" lon="4.62149">
        <ele>806</ele>
      </trkpt>
      <trkpt lat="45.34194" lon="4.62092">
        <ele>805.9</ele>
      </trkpt>
      <trkpt lat="45.34152" lon="4.62026">
        <ele>802.1</ele>
      </trkpt>
      <trkpt lat="45.34114" lon="4.61984">
        <ele>801.2</ele>
      </trkpt>
      <trkpt lat="45.34062" lon="4.61876">
        <ele>809.9</ele>
      </trkpt>
      <trkpt lat="45.33989" lon="4.61777">
        <ele>798.7</ele>
      </trkpt>
      <trkpt lat="45.33968" lon="4.61756">
        <ele>795.7</ele>
      </trkpt>
      <trkpt lat="45.33919" lon="4.61674">
        <ele>792.5</ele>
      </trkpt>
      <trkpt lat="45.33906" lon="4.61665">
        <ele>790.6</ele>
      </trkpt>
      <trkpt lat="45.3387" lon="4.61674">
        <ele>786.5</ele>
      </trkpt>
      <trkpt lat="45.33832" lon="4.61668">
        <ele>784.6</ele>
      </trkpt>
      <trkpt lat="45.33821" lon="4.61659">
        <ele>783.9</ele>
      </trkpt>
      <trkpt lat="45.33821" lon="4.6162">
        <ele>787.7</ele>
      </trkpt>
      <trkpt lat="45.33805" lon="4.6155">
        <ele>791.2</ele>
      </trkpt>
      <trkpt lat="45.33802" lon="4.61481">
        <ele>790.3</ele>
      </trkpt>
      <trkpt lat="45.33711" lon="4.61407">
        <ele>792.3</ele>
      </trkpt>
      <trkpt lat="45.33688" lon="4.61383">
        <ele>791.2</ele>
      </trkpt>
      <trkpt lat="45.33661" lon="4.61384">
        <ele>789.3</ele>
      </trkpt>
      <trkpt lat="45.3363" lon="4.61411">
        <ele>786.3</ele>
      </trkpt>
      <trkpt lat="45.33625" lon="4.61427">
        <ele>786.5</ele>
      </trkpt>
      <trkpt lat="45.33628" lon="4.61452">
        <ele>789</ele>
      </trkpt>
      <trkpt lat="45.33632" lon="4.61467">
        <ele>790.4</ele>
      </trkpt>
      <trkpt lat="45.33633" lon="4.61492">
        <ele>792.3</ele>
      </trkpt>
      <trkpt lat="45.33627" lon="4.61524">
        <ele>793.6</ele>
      </trkpt>
      <trkpt lat="45.33622" lon="4.6154">
        <ele>793.8</ele>
      </trkpt>
      <trkpt lat="45.33607" lon="4.61551">
        <ele>793.1</ele>
      </trkpt>
      <trkpt lat="45.33596" lon="4.61581">
        <ele>793.8</ele>
      </trkpt>
      <trkpt lat="45.3358" lon="4.61596">
        <ele>794.1</ele>
      </trkpt>
      <trkpt lat="45.33508" lon="4.6163">
        <ele>794.7</ele>
      </trkpt>
      <trkpt lat="45.33453" lon="4.61655">
        <ele>798</ele>
      </trkpt>
      <trkpt lat="45.33399" lon="4.61645">
        <ele>798.5</ele>
      </trkpt>
      <trkpt lat="45.33354" lon="4.61681">
        <ele>795.2</ele>
      </trkpt>
      <trkpt lat="45.33321" lon="4.61756">
        <ele>782</ele>
      </trkpt>
      <trkpt lat="45.3327" lon="4.61792">
        <ele>779</ele>
      </trkpt>
      <trkpt lat="45.33211" lon="4.6186">
        <ele>769.2</ele>
      </trkpt>
      <trkpt lat="45.33179" lon="4.6188">
        <ele>767.8</ele>
      </trkpt>
      <trkpt lat="45.33141" lon="4.61872">
        <ele>763.8</ele>
      </trkpt>
      <trkpt lat="45.33107" lon="4.61841">
        <ele>756.2</ele>
      </trkpt>
      <trkpt lat="45.33075" lon="4.61827">
        <ele>747.9</ele>
      </trkpt>
      <trkpt lat="45.33054" lon="4.6181">
        <ele>743.3</ele>
      </trkpt>
      <trkpt lat="45.33014" lon="4.61792">
        <ele>731.9</ele>
      </trkpt>
      <trkpt lat="45.32957" lon="4.6178">
        <ele>717.6</ele>
      </trkpt>
      <trkpt lat="45.32939" lon="4.61733">
        <ele>713.3</ele>
      </trkpt>
      <trkpt lat="45.32913" lon="4.61736">
        <ele>707.9</ele>
      </trkpt>
      <trkpt lat="45.32876" lon="4.61693">
        <ele>705.1</ele>
      </trkpt>
      <trkpt lat="45.32833" lon="4.61622">
        <ele>696.4</ele>
      </trkpt>
      <trkpt lat="45.32817" lon="4.61592">
        <ele>690.6</ele>
      </trkpt>
      <trkpt lat="45.3278" lon="4.61571">
        <ele>682.3</ele>
      </trkpt>
      <trkpt lat="45.32749" lon="4.616">
        <ele>676.2</ele>
      </trkpt>
      <trkpt lat="45.32743" lon="4.61613">
        <ele>674.1</ele>
      </trkpt>
      <trkpt lat="45.32668" lon="4.61623">
        <ele>658.3</ele>
      </trkpt>
      <trkpt lat="45.32618" lon="4.6163">
        <ele>646.6</ele>
      </trkpt>
      <trkpt lat="45.32573" lon="4.61618">
        <ele>635.9</ele>
      </trkpt>
      <trkpt lat="45.32516" lon="4.6159">
        <ele>625.4</ele>
      </trkpt>
      <trkpt lat="45.3239" lon="4.61492">
        <ele>599.1</ele>
      </trkpt>
      <trkpt lat="45.32379" lon="4.6149">
        <ele>597.7</ele>
      </trkpt>
      <trkpt lat="45.32363" lon="4.61482">
        <ele>595</ele>
      </trkpt>
      <trkpt lat="45.32338" lon="4.61519">
        <ele>593.2</ele>
      </trkpt>
      <trkpt lat="45.323" lon="4.61532">
        <ele>587.7</ele>
      </trkpt>
      <trkpt lat="45.3223" lon="4.61595">
        <ele>585.4</ele>
      </trkpt>
      <trkpt lat="45.32216" lon="4.61594">
        <ele>584</ele>
      </trkpt>
      <trkpt lat="45.32184" lon="4.61469">
        <ele>588.8</ele>
      </trkpt>
      <trkpt lat="45.32144" lon="4.61488">
        <ele>590.8</ele>
      </trkpt>
    </trkseg>
  </trk>
</gpx>